<?xml version="1.0" encoding="UTF-8" standalone="no" ?>
<gpx xmlns="http://www.topografix.com/GPX/1/1" xmlns:xsi="http://www.w3.org/2001/XMLSchema-instance" xsi:schemaLocation="http://www.topografix.com/GPX/1/1 http://www.topografix.com/GPX/1/1/gpx.xsd" version="1.1" creator="VisuGPX - https://www.visugpx.com">
  <metadata>
    <name>CARREFOUR DE LUYNES 9</name>
  </metadata>
  <trk>
    <name><![CDATA[CARREFOUR DE LUYNES 9]]></name>
    <trkseg>
      <trkpt lat="48.59178" lon="1.96608">
        <ele>-7.07</ele>
        <time>2018-01-23T08:21:32Z</time>
      </trkpt>
      <trkpt lat="48.59178" lon="1.96604">
        <ele>-7.07</ele>
        <time>2018-01-23T08:21:33Z</time>
      </trkpt>
      <trkpt lat="48.59177" lon="1.96596">
        <ele>-2.75</ele>
        <time>2018-01-23T08:21:37Z</time>
      </trkpt>
      <trkpt lat="48.59177" lon="1.96594">
        <ele>1.58</ele>
        <time>2018-01-23T08:21:38Z</time>
      </trkpt>
      <trkpt lat="48.59177" lon="1.96594">
        <ele>5.42</ele>
        <time>2018-01-23T08:21:39Z</time>
      </trkpt>
      <trkpt lat="48.59176" lon="1.96592">
        <ele>9.75</ele>
        <time>2018-01-23T08:21:40Z</time>
      </trkpt>
      <trkpt lat="48.59177" lon="1.96592">
        <ele>13.12</ele>
        <time>2018-01-23T08:21:41Z</time>
      </trkpt>
      <trkpt lat="48.59177" lon="1.96592">
        <ele>16.96</ele>
        <time>2018-01-23T08:21:42Z</time>
      </trkpt>
      <trkpt lat="48.59178" lon="1.96593">
        <ele>20.81</ele>
        <time>2018-01-23T08:21:43Z</time>
      </trkpt>
      <trkpt lat="48.59178" lon="1.96591">
        <ele>24.17</ele>
        <time>2018-01-23T08:21:44Z</time>
      </trkpt>
      <trkpt lat="48.59179" lon="1.9659">
        <ele>27.53</ele>
        <time>2018-01-23T08:21:45Z</time>
      </trkpt>
      <trkpt lat="48.59179" lon="1.9659">
        <ele>30.42</ele>
        <time>2018-01-23T08:21:46Z</time>
      </trkpt>
      <trkpt lat="48.5918" lon="1.9659">
        <ele>33.78</ele>
        <time>2018-01-23T08:21:47Z</time>
      </trkpt>
      <trkpt lat="48.59181" lon="1.96592">
        <ele>40.03</ele>
        <time>2018-01-23T08:21:49Z</time>
      </trkpt>
      <trkpt lat="48.59183" lon="1.96595">
        <ele>45.32</ele>
        <time>2018-01-23T08:21:51Z</time>
      </trkpt>
      <trkpt lat="48.59183" lon="1.96596">
        <ele>50.61</ele>
        <time>2018-01-23T08:21:53Z</time>
      </trkpt>
      <trkpt lat="48.59182" lon="1.96594">
        <ele>55.41</ele>
        <time>2018-01-23T08:21:55Z</time>
      </trkpt>
      <trkpt lat="48.59182" lon="1.96593">
        <ele>60.22</ele>
        <time>2018-01-23T08:21:57Z</time>
      </trkpt>
      <trkpt lat="48.59182" lon="1.96593">
        <ele>64.07</ele>
        <time>2018-01-23T08:21:59Z</time>
      </trkpt>
      <trkpt lat="48.59181" lon="1.96589">
        <ele>68.39</ele>
        <time>2018-01-23T08:22:01Z</time>
      </trkpt>
      <trkpt lat="48.5918" lon="1.96586">
        <ele>71.76</ele>
        <time>2018-01-23T08:22:03Z</time>
      </trkpt>
      <trkpt lat="48.5918" lon="1.96587">
        <ele>75.6</ele>
        <time>2018-01-23T08:22:05Z</time>
      </trkpt>
      <trkpt lat="48.5918" lon="1.96589">
        <ele>78.97</ele>
        <time>2018-01-23T08:22:07Z</time>
      </trkpt>
      <trkpt lat="48.59182" lon="1.96592">
        <ele>81.85</ele>
        <time>2018-01-23T08:22:09Z</time>
      </trkpt>
      <trkpt lat="48.59182" lon="1.96594">
        <ele>86.18</ele>
        <time>2018-01-23T08:22:12Z</time>
      </trkpt>
      <trkpt lat="48.59181" lon="1.96596">
        <ele>90.02</ele>
        <time>2018-01-23T08:22:15Z</time>
      </trkpt>
      <trkpt lat="48.5918" lon="1.96598">
        <ele>92.9</ele>
        <time>2018-01-23T08:22:18Z</time>
      </trkpt>
      <trkpt lat="48.5918" lon="1.966">
        <ele>96.27</ele>
        <time>2018-01-23T08:22:21Z</time>
      </trkpt>
      <trkpt lat="48.5918" lon="1.96599">
        <ele>99.63</ele>
        <time>2018-01-23T08:22:25Z</time>
      </trkpt>
      <trkpt lat="48.59179" lon="1.96595">
        <ele>102.52</ele>
        <time>2018-01-23T08:22:29Z</time>
      </trkpt>
      <trkpt lat="48.59178" lon="1.96594">
        <ele>105.88</ele>
        <time>2018-01-23T08:22:34Z</time>
      </trkpt>
      <trkpt lat="48.59178" lon="1.96595">
        <ele>109.25</ele>
        <time>2018-01-23T08:22:39Z</time>
      </trkpt>
      <trkpt lat="48.5918" lon="1.96594">
        <ele>112.13</ele>
        <time>2018-01-23T08:22:45Z</time>
      </trkpt>
      <trkpt lat="48.5918" lon="1.96594">
        <ele>113.09</ele>
        <time>2018-01-23T08:22:47Z</time>
      </trkpt>
      <trkpt lat="48.59181" lon="1.96594">
        <ele>116.46</ele>
        <time>2018-01-23T08:22:54Z</time>
      </trkpt>
      <trkpt lat="48.59181" lon="1.96593">
        <ele>119.34</ele>
        <time>2018-01-23T08:23:02Z</time>
      </trkpt>
      <trkpt lat="48.5918" lon="1.96591">
        <ele>122.71</ele>
        <time>2018-01-23T08:23:12Z</time>
      </trkpt>
      <trkpt lat="48.59176" lon="1.9659">
        <ele>124.63</ele>
        <time>2018-01-23T08:23:37Z</time>
      </trkpt>
      <trkpt lat="48.59174" lon="1.96589">
        <ele>125.11</ele>
        <time>2018-01-23T08:24:01Z</time>
      </trkpt>
      <trkpt lat="48.59174" lon="1.96594">
        <ele>125.11</ele>
        <time>2018-01-23T08:24:13Z</time>
      </trkpt>
      <trkpt lat="48.59173" lon="1.96595">
        <ele>124.63</ele>
        <time>2018-01-23T08:24:20Z</time>
      </trkpt>
      <trkpt lat="48.59175" lon="1.96601">
        <ele>125.11</ele>
        <time>2018-01-23T08:24:32Z</time>
      </trkpt>
      <trkpt lat="48.59175" lon="1.96602">
        <ele>124.63</ele>
        <time>2018-01-23T08:24:46Z</time>
      </trkpt>
      <trkpt lat="48.59174" lon="1.96604">
        <ele>124.63</ele>
        <time>2018-01-23T08:24:56Z</time>
      </trkpt>
      <trkpt lat="48.59175" lon="1.96604">
        <ele>125.11</ele>
        <time>2018-01-23T08:25:06Z</time>
      </trkpt>
      <trkpt lat="48.59178" lon="1.96605">
        <ele>125.11</ele>
        <time>2018-01-23T08:25:12Z</time>
      </trkpt>
      <trkpt lat="48.59185" lon="1.96598">
        <ele>125.11</ele>
        <time>2018-01-23T08:25:22Z</time>
      </trkpt>
      <trkpt lat="48.59186" lon="1.96593">
        <ele>124.63</ele>
        <time>2018-01-23T08:25:31Z</time>
      </trkpt>
      <trkpt lat="48.59192" lon="1.96585">
        <ele>125.11</ele>
        <time>2018-01-23T08:25:39Z</time>
      </trkpt>
      <trkpt lat="48.59196" lon="1.96576">
        <ele>125.11</ele>
        <time>2018-01-23T08:25:45Z</time>
      </trkpt>
      <trkpt lat="48.59212" lon="1.96557">
        <ele>125.59</ele>
        <time>2018-01-23T08:25:59Z</time>
      </trkpt>
      <trkpt lat="48.59221" lon="1.96547">
        <ele>126.07</ele>
        <time>2018-01-23T08:26:06Z</time>
      </trkpt>
      <trkpt lat="48.59226" lon="1.96541">
        <ele>126.55</ele>
        <time>2018-01-23T08:26:11Z</time>
      </trkpt>
      <trkpt lat="48.59231" lon="1.96537">
        <ele>127.03</ele>
        <time>2018-01-23T08:26:15Z</time>
      </trkpt>
      <trkpt lat="48.59234" lon="1.96533">
        <ele>127.51</ele>
        <time>2018-01-23T08:26:19Z</time>
      </trkpt>
      <trkpt lat="48.59235" lon="1.9653">
        <ele>127.51</ele>
        <time>2018-01-23T08:26:21Z</time>
      </trkpt>
      <trkpt lat="48.59239" lon="1.96528">
        <ele>127.99</ele>
        <time>2018-01-23T08:26:25Z</time>
      </trkpt>
      <trkpt lat="48.59242" lon="1.96525">
        <ele>127.99</ele>
        <time>2018-01-23T08:26:28Z</time>
      </trkpt>
      <trkpt lat="48.59254" lon="1.96513">
        <ele>129.43</ele>
        <time>2018-01-23T08:26:40Z</time>
      </trkpt>
      <trkpt lat="48.59263" lon="1.96506">
        <ele>129.92</ele>
        <time>2018-01-23T08:26:45Z</time>
      </trkpt>
      <trkpt lat="48.59278" lon="1.96493">
        <ele>131.84</ele>
        <time>2018-01-23T08:26:58Z</time>
      </trkpt>
      <trkpt lat="48.59279" lon="1.96492">
        <ele>131.36</ele>
        <time>2018-01-23T08:27:00Z</time>
      </trkpt>
      <trkpt lat="48.59282" lon="1.9649">
        <ele>132.8</ele>
        <time>2018-01-23T08:27:03Z</time>
      </trkpt>
      <trkpt lat="48.59285" lon="1.96491">
        <ele>133.28</ele>
        <time>2018-01-23T08:27:07Z</time>
      </trkpt>
      <trkpt lat="48.59295" lon="1.96492">
        <ele>134.72</ele>
        <time>2018-01-23T08:27:18Z</time>
      </trkpt>
      <trkpt lat="48.59303" lon="1.96498">
        <ele>137.13</ele>
        <time>2018-01-23T08:27:29Z</time>
      </trkpt>
      <trkpt lat="48.59305" lon="1.965">
        <ele>136.64</ele>
        <time>2018-01-23T08:27:31Z</time>
      </trkpt>
      <trkpt lat="48.59312" lon="1.96503">
        <ele>137.13</ele>
        <time>2018-01-23T08:27:36Z</time>
      </trkpt>
      <trkpt lat="48.59318" lon="1.96506">
        <ele>137.61</ele>
        <time>2018-01-23T08:27:41Z</time>
      </trkpt>
      <trkpt lat="48.59334" lon="1.96517">
        <ele>139.05</ele>
        <time>2018-01-23T08:27:55Z</time>
      </trkpt>
      <trkpt lat="48.59335" lon="1.96521">
        <ele>138.57</ele>
        <time>2018-01-23T08:27:58Z</time>
      </trkpt>
      <trkpt lat="48.59345" lon="1.96531">
        <ele>139.05</ele>
        <time>2018-01-23T08:28:06Z</time>
      </trkpt>
      <trkpt lat="48.59363" lon="1.96545">
        <ele>139.53</ele>
        <time>2018-01-23T08:28:19Z</time>
      </trkpt>
      <trkpt lat="48.5937" lon="1.96549">
        <ele>140.01</ele>
        <time>2018-01-23T08:28:24Z</time>
      </trkpt>
      <trkpt lat="48.59375" lon="1.96553">
        <ele>140.49</ele>
        <time>2018-01-23T08:28:29Z</time>
      </trkpt>
      <trkpt lat="48.59381" lon="1.9656">
        <ele>142.89</ele>
        <time>2018-01-23T08:28:36Z</time>
      </trkpt>
      <trkpt lat="48.59389" lon="1.96564">
        <ele>142.89</ele>
        <time>2018-01-23T08:28:43Z</time>
      </trkpt>
      <trkpt lat="48.59393" lon="1.96568">
        <ele>143.85</ele>
        <time>2018-01-23T08:28:47Z</time>
      </trkpt>
      <trkpt lat="48.59402" lon="1.96575">
        <ele>144.34</ele>
        <time>2018-01-23T08:28:55Z</time>
      </trkpt>
      <trkpt lat="48.59406" lon="1.9658">
        <ele>145.3</ele>
        <time>2018-01-23T08:28:59Z</time>
      </trkpt>
      <trkpt lat="48.59418" lon="1.96591">
        <ele>147.7</ele>
        <time>2018-01-23T08:29:09Z</time>
      </trkpt>
      <trkpt lat="48.59425" lon="1.96599">
        <ele>148.66</ele>
        <time>2018-01-23T08:29:15Z</time>
      </trkpt>
      <trkpt lat="48.59432" lon="1.9661">
        <ele>148.66</ele>
        <time>2018-01-23T08:29:24Z</time>
      </trkpt>
      <trkpt lat="48.59435" lon="1.96622">
        <ele>150.1</ele>
        <time>2018-01-23T08:29:31Z</time>
      </trkpt>
      <trkpt lat="48.59434" lon="1.96625">
        <ele>149.62</ele>
        <time>2018-01-23T08:29:33Z</time>
      </trkpt>
      <trkpt lat="48.59429" lon="1.96634">
        <ele>149.14</ele>
        <time>2018-01-23T08:29:38Z</time>
      </trkpt>
      <trkpt lat="48.59421" lon="1.96652">
        <ele>148.66</ele>
        <time>2018-01-23T08:29:50Z</time>
      </trkpt>
      <trkpt lat="48.59409" lon="1.96674">
        <ele>149.14</ele>
        <time>2018-01-23T08:30:03Z</time>
      </trkpt>
      <trkpt lat="48.59398" lon="1.96696">
        <ele>148.66</ele>
        <time>2018-01-23T08:30:15Z</time>
      </trkpt>
      <trkpt lat="48.59398" lon="1.96698">
        <ele>148.66</ele>
        <time>2018-01-23T08:30:16Z</time>
      </trkpt>
      <trkpt lat="48.5939" lon="1.9671">
        <ele>148.66</ele>
        <time>2018-01-23T08:30:24Z</time>
      </trkpt>
      <trkpt lat="48.59388" lon="1.96719">
        <ele>149.14</ele>
        <time>2018-01-23T08:30:28Z</time>
      </trkpt>
      <trkpt lat="48.59385" lon="1.96728">
        <ele>149.14</ele>
        <time>2018-01-23T08:30:33Z</time>
      </trkpt>
      <trkpt lat="48.59376" lon="1.96749">
        <ele>149.62</ele>
        <time>2018-01-23T08:30:46Z</time>
      </trkpt>
      <trkpt lat="48.59367" lon="1.96768">
        <ele>150.1</ele>
        <time>2018-01-23T08:30:57Z</time>
      </trkpt>
      <trkpt lat="48.59363" lon="1.96779">
        <ele>150.1</ele>
        <time>2018-01-23T08:31:03Z</time>
      </trkpt>
      <trkpt lat="48.59353" lon="1.96799">
        <ele>149.14</ele>
        <time>2018-01-23T08:31:15Z</time>
      </trkpt>
      <trkpt lat="48.59344" lon="1.96819">
        <ele>146.74</ele>
        <time>2018-01-23T08:31:28Z</time>
      </trkpt>
      <trkpt lat="48.59334" lon="1.96841">
        <ele>144.34</ele>
        <time>2018-01-23T08:31:42Z</time>
      </trkpt>
      <trkpt lat="48.59327" lon="1.96855">
        <ele>143.37</ele>
        <time>2018-01-23T08:31:52Z</time>
      </trkpt>
      <trkpt lat="48.5932" lon="1.96864">
        <ele>141.93</ele>
        <time>2018-01-23T08:31:59Z</time>
      </trkpt>
      <trkpt lat="48.59317" lon="1.96869">
        <ele>140.97</ele>
        <time>2018-01-23T08:32:03Z</time>
      </trkpt>
      <trkpt lat="48.59314" lon="1.96881">
        <ele>139.05</ele>
        <time>2018-01-23T08:32:10Z</time>
      </trkpt>
      <trkpt lat="48.59303" lon="1.96902">
        <ele>136.16</ele>
        <time>2018-01-23T08:32:24Z</time>
      </trkpt>
      <trkpt lat="48.59297" lon="1.96916">
        <ele>135.2</ele>
        <time>2018-01-23T08:32:32Z</time>
      </trkpt>
      <trkpt lat="48.59288" lon="1.96935">
        <ele>133.28</ele>
        <time>2018-01-23T08:32:43Z</time>
      </trkpt>
      <trkpt lat="48.59277" lon="1.96957">
        <ele>130.88</ele>
        <time>2018-01-23T08:32:56Z</time>
      </trkpt>
      <trkpt lat="48.59273" lon="1.96966">
        <ele>129.43</ele>
        <time>2018-01-23T08:33:01Z</time>
      </trkpt>
      <trkpt lat="48.59261" lon="1.96991">
        <ele>127.51</ele>
        <time>2018-01-23T08:33:15Z</time>
      </trkpt>
      <trkpt lat="48.59256" lon="1.97003">
        <ele>126.55</ele>
        <time>2018-01-23T08:33:22Z</time>
      </trkpt>
      <trkpt lat="48.59253" lon="1.97009">
        <ele>126.07</ele>
        <time>2018-01-23T08:33:25Z</time>
      </trkpt>
      <trkpt lat="48.59251" lon="1.97012">
        <ele>126.07</ele>
        <time>2018-01-23T08:33:27Z</time>
      </trkpt>
      <trkpt lat="48.59246" lon="1.97024">
        <ele>126.07</ele>
        <time>2018-01-23T08:33:33Z</time>
      </trkpt>
      <trkpt lat="48.59237" lon="1.97045">
        <ele>125.59</ele>
        <time>2018-01-23T08:33:46Z</time>
      </trkpt>
      <trkpt lat="48.59236" lon="1.97048">
        <ele>125.59</ele>
        <time>2018-01-23T08:33:48Z</time>
      </trkpt>
      <trkpt lat="48.59226" lon="1.97067">
        <ele>125.11</ele>
        <time>2018-01-23T08:34:00Z</time>
      </trkpt>
      <trkpt lat="48.59213" lon="1.97099">
        <ele>124.15</ele>
        <time>2018-01-23T08:34:16Z</time>
      </trkpt>
      <trkpt lat="48.59204" lon="1.97114">
        <ele>124.15</ele>
        <time>2018-01-23T08:34:26Z</time>
      </trkpt>
      <trkpt lat="48.59195" lon="1.9713">
        <ele>123.67</ele>
        <time>2018-01-23T08:34:35Z</time>
      </trkpt>
      <trkpt lat="48.59192" lon="1.97135">
        <ele>123.19</ele>
        <time>2018-01-23T08:34:38Z</time>
      </trkpt>
      <trkpt lat="48.59186" lon="1.97154">
        <ele>121.74</ele>
        <time>2018-01-23T08:34:50Z</time>
      </trkpt>
      <trkpt lat="48.59181" lon="1.97167">
        <ele>121.26</ele>
        <time>2018-01-23T08:34:57Z</time>
      </trkpt>
      <trkpt lat="48.59176" lon="1.97186">
        <ele>120.3</ele>
        <time>2018-01-23T08:35:07Z</time>
      </trkpt>
      <trkpt lat="48.59171" lon="1.97193">
        <ele>120.3</ele>
        <time>2018-01-23T08:35:11Z</time>
      </trkpt>
      <trkpt lat="48.5916" lon="1.97215">
        <ele>119.34</ele>
        <time>2018-01-23T08:35:26Z</time>
      </trkpt>
      <trkpt lat="48.59146" lon="1.97244">
        <ele>119.34</ele>
        <time>2018-01-23T08:35:41Z</time>
      </trkpt>
      <trkpt lat="48.59139" lon="1.97266">
        <ele>118.86</ele>
        <time>2018-01-23T08:35:56Z</time>
      </trkpt>
      <trkpt lat="48.59134" lon="1.9727">
        <ele>118.86</ele>
        <time>2018-01-23T08:35:58Z</time>
      </trkpt>
      <trkpt lat="48.59121" lon="1.97295">
        <ele>117.9</ele>
        <time>2018-01-23T08:36:12Z</time>
      </trkpt>
      <trkpt lat="48.59118" lon="1.97305">
        <ele>117.9</ele>
        <time>2018-01-23T08:36:26Z</time>
      </trkpt>
      <trkpt lat="48.59115" lon="1.97312">
        <ele>117.9</ele>
        <time>2018-01-23T08:36:35Z</time>
      </trkpt>
      <trkpt lat="48.59113" lon="1.97321">
        <ele>118.38</ele>
        <time>2018-01-23T08:36:41Z</time>
      </trkpt>
      <trkpt lat="48.59115" lon="1.97332">
        <ele>118.38</ele>
        <time>2018-01-23T08:36:45Z</time>
      </trkpt>
      <trkpt lat="48.59117" lon="1.97342">
        <ele>118.38</ele>
        <time>2018-01-23T08:36:50Z</time>
      </trkpt>
      <trkpt lat="48.59127" lon="1.97352">
        <ele>118.86</ele>
        <time>2018-01-23T08:36:58Z</time>
      </trkpt>
      <trkpt lat="48.59131" lon="1.97358">
        <ele>118.86</ele>
        <time>2018-01-23T08:37:02Z</time>
      </trkpt>
      <trkpt lat="48.59138" lon="1.97365">
        <ele>119.34</ele>
        <time>2018-01-23T08:37:08Z</time>
      </trkpt>
      <trkpt lat="48.59151" lon="1.97379">
        <ele>119.34</ele>
        <time>2018-01-23T08:37:20Z</time>
      </trkpt>
      <trkpt lat="48.59163" lon="1.97386">
        <ele>120.3</ele>
        <time>2018-01-23T08:37:30Z</time>
      </trkpt>
      <trkpt lat="48.59174" lon="1.97393">
        <ele>120.3</ele>
        <time>2018-01-23T08:37:37Z</time>
      </trkpt>
      <trkpt lat="48.59182" lon="1.974">
        <ele>121.26</ele>
        <time>2018-01-23T08:37:41Z</time>
      </trkpt>
      <trkpt lat="48.59195" lon="1.97411">
        <ele>122.22</ele>
        <time>2018-01-23T08:37:49Z</time>
      </trkpt>
      <trkpt lat="48.5921" lon="1.9742">
        <ele>122.22</ele>
        <time>2018-01-23T08:38:02Z</time>
      </trkpt>
      <trkpt lat="48.59217" lon="1.97425">
        <ele>122.71</ele>
        <time>2018-01-23T08:38:08Z</time>
      </trkpt>
      <trkpt lat="48.59226" lon="1.9743">
        <ele>123.67</ele>
        <time>2018-01-23T08:38:16Z</time>
      </trkpt>
      <trkpt lat="48.5924" lon="1.97428">
        <ele>125.11</ele>
        <time>2018-01-23T08:38:27Z</time>
      </trkpt>
      <trkpt lat="48.59244" lon="1.97428">
        <ele>125.11</ele>
        <time>2018-01-23T08:38:30Z</time>
      </trkpt>
      <trkpt lat="48.59258" lon="1.9743">
        <ele>126.55</ele>
        <time>2018-01-23T08:38:39Z</time>
      </trkpt>
      <trkpt lat="48.59268" lon="1.97425">
        <ele>126.07</ele>
        <time>2018-01-23T08:38:46Z</time>
      </trkpt>
      <trkpt lat="48.59271" lon="1.97424">
        <ele>126.07</ele>
        <time>2018-01-23T08:38:48Z</time>
      </trkpt>
      <trkpt lat="48.59272" lon="1.97424">
        <ele>126.55</ele>
        <time>2018-01-23T08:38:49Z</time>
      </trkpt>
      <trkpt lat="48.59282" lon="1.97427">
        <ele>127.51</ele>
        <time>2018-01-23T08:38:55Z</time>
      </trkpt>
      <trkpt lat="48.59297" lon="1.97425">
        <ele>128.95</ele>
        <time>2018-01-23T08:39:03Z</time>
      </trkpt>
      <trkpt lat="48.59324" lon="1.97426">
        <ele>130.88</ele>
        <time>2018-01-23T08:39:18Z</time>
      </trkpt>
      <trkpt lat="48.59326" lon="1.97426">
        <ele>130.88</ele>
        <time>2018-01-23T08:39:19Z</time>
      </trkpt>
      <trkpt lat="48.59335" lon="1.97424">
        <ele>131.36</ele>
        <time>2018-01-23T08:39:27Z</time>
      </trkpt>
      <trkpt lat="48.59338" lon="1.97425">
        <ele>131.36</ele>
        <time>2018-01-23T08:39:29Z</time>
      </trkpt>
      <trkpt lat="48.59358" lon="1.97427">
        <ele>132.32</ele>
        <time>2018-01-23T08:39:42Z</time>
      </trkpt>
      <trkpt lat="48.59361" lon="1.97427">
        <ele>133.28</ele>
        <time>2018-01-23T08:39:44Z</time>
      </trkpt>
      <trkpt lat="48.59378" lon="1.97429">
        <ele>134.24</ele>
        <time>2018-01-23T08:39:56Z</time>
      </trkpt>
      <trkpt lat="48.59395" lon="1.97431">
        <ele>135.2</ele>
        <time>2018-01-23T08:40:07Z</time>
      </trkpt>
      <trkpt lat="48.59402" lon="1.97432">
        <ele>135.68</ele>
        <time>2018-01-23T08:40:14Z</time>
      </trkpt>
      <trkpt lat="48.5942" lon="1.97433">
        <ele>136.64</ele>
        <time>2018-01-23T08:40:25Z</time>
      </trkpt>
      <trkpt lat="48.59426" lon="1.97434">
        <ele>137.13</ele>
        <time>2018-01-23T08:40:29Z</time>
      </trkpt>
      <trkpt lat="48.59432" lon="1.97432">
        <ele>138.09</ele>
        <time>2018-01-23T08:40:35Z</time>
      </trkpt>
      <trkpt lat="48.59436" lon="1.97432">
        <ele>139.05</ele>
        <time>2018-01-23T08:40:38Z</time>
      </trkpt>
      <trkpt lat="48.59444" lon="1.97434">
        <ele>139.05</ele>
        <time>2018-01-23T08:40:43Z</time>
      </trkpt>
      <trkpt lat="48.59447" lon="1.97435">
        <ele>139.05</ele>
        <time>2018-01-23T08:40:45Z</time>
      </trkpt>
      <trkpt lat="48.59461" lon="1.97437">
        <ele>140.01</ele>
        <time>2018-01-23T08:40:57Z</time>
      </trkpt>
      <trkpt lat="48.59474" lon="1.97434">
        <ele>140.49</ele>
        <time>2018-01-23T08:41:09Z</time>
      </trkpt>
      <trkpt lat="48.59474" lon="1.97433">
        <ele>140.49</ele>
        <time>2018-01-23T08:41:22Z</time>
      </trkpt>
      <trkpt lat="48.59475" lon="1.97432">
        <ele>140.01</ele>
        <time>2018-01-23T08:41:42Z</time>
      </trkpt>
      <trkpt lat="48.59475" lon="1.97433">
        <ele>140.49</ele>
        <time>2018-01-23T08:41:47Z</time>
      </trkpt>
      <trkpt lat="48.59476" lon="1.97436">
        <ele>140.49</ele>
        <time>2018-01-23T08:41:49Z</time>
      </trkpt>
      <trkpt lat="48.59476" lon="1.97444">
        <ele>140.49</ele>
        <time>2018-01-23T08:41:54Z</time>
      </trkpt>
      <trkpt lat="48.59471" lon="1.97466">
        <ele>141.93</ele>
        <time>2018-01-23T08:42:07Z</time>
      </trkpt>
      <trkpt lat="48.5947" lon="1.97471">
        <ele>141.45</ele>
        <time>2018-01-23T08:42:10Z</time>
      </trkpt>
      <trkpt lat="48.59473" lon="1.97487">
        <ele>142.41</ele>
        <time>2018-01-23T08:42:18Z</time>
      </trkpt>
      <trkpt lat="48.59474" lon="1.97489">
        <ele>142.41</ele>
        <time>2018-01-23T08:42:20Z</time>
      </trkpt>
      <trkpt lat="48.59477" lon="1.97497">
        <ele>143.37</ele>
        <time>2018-01-23T08:42:25Z</time>
      </trkpt>
      <trkpt lat="48.59473" lon="1.97519">
        <ele>143.37</ele>
        <time>2018-01-23T08:42:36Z</time>
      </trkpt>
      <trkpt lat="48.59468" lon="1.97531">
        <ele>144.82</ele>
        <time>2018-01-23T08:42:41Z</time>
      </trkpt>
      <trkpt lat="48.59466" lon="1.97538">
        <ele>144.82</ele>
        <time>2018-01-23T08:42:45Z</time>
      </trkpt>
      <trkpt lat="48.59457" lon="1.97555">
        <ele>146.26</ele>
        <time>2018-01-23T08:42:58Z</time>
      </trkpt>
      <trkpt lat="48.59455" lon="1.97558">
        <ele>145.78</ele>
        <time>2018-01-23T08:43:00Z</time>
      </trkpt>
      <trkpt lat="48.59447" lon="1.9757">
        <ele>146.74</ele>
        <time>2018-01-23T08:43:07Z</time>
      </trkpt>
      <trkpt lat="48.59444" lon="1.97579">
        <ele>146.74</ele>
        <time>2018-01-23T08:43:11Z</time>
      </trkpt>
      <trkpt lat="48.59441" lon="1.97583">
        <ele>147.22</ele>
        <time>2018-01-23T08:43:14Z</time>
      </trkpt>
      <trkpt lat="48.59435" lon="1.97611">
        <ele>149.14</ele>
        <time>2018-01-23T08:43:28Z</time>
      </trkpt>
      <trkpt lat="48.59435" lon="1.97612">
        <ele>149.14</ele>
        <time>2018-01-23T08:43:29Z</time>
      </trkpt>
      <trkpt lat="48.59433" lon="1.97619">
        <ele>149.14</ele>
        <time>2018-01-23T08:43:33Z</time>
      </trkpt>
      <trkpt lat="48.59434" lon="1.97635">
        <ele>151.06</ele>
        <time>2018-01-23T08:43:42Z</time>
      </trkpt>
      <trkpt lat="48.59433" lon="1.97644">
        <ele>150.58</ele>
        <time>2018-01-23T08:43:46Z</time>
      </trkpt>
      <trkpt lat="48.59433" lon="1.97649">
        <ele>151.54</ele>
        <time>2018-01-23T08:43:48Z</time>
      </trkpt>
      <trkpt lat="48.59432" lon="1.97661">
        <ele>152.03</ele>
        <time>2018-01-23T08:43:54Z</time>
      </trkpt>
      <trkpt lat="48.5943" lon="1.9767">
        <ele>153.95</ele>
        <time>2018-01-23T08:43:58Z</time>
      </trkpt>
      <trkpt lat="48.59429" lon="1.97673">
        <ele>153.47</ele>
        <time>2018-01-23T08:44:00Z</time>
      </trkpt>
      <trkpt lat="48.59429" lon="1.97693">
        <ele>154.43</ele>
        <time>2018-01-23T08:44:12Z</time>
      </trkpt>
      <trkpt lat="48.59432" lon="1.97701">
        <ele>155.87</ele>
        <time>2018-01-23T08:44:16Z</time>
      </trkpt>
      <trkpt lat="48.59432" lon="1.97703">
        <ele>155.87</ele>
        <time>2018-01-23T08:44:18Z</time>
      </trkpt>
      <trkpt lat="48.59433" lon="1.97709">
        <ele>157.31</ele>
        <time>2018-01-23T08:44:21Z</time>
      </trkpt>
      <trkpt lat="48.59442" lon="1.97729">
        <ele>158.27</ele>
        <time>2018-01-23T08:44:33Z</time>
      </trkpt>
      <trkpt lat="48.59443" lon="1.97732">
        <ele>157.79</ele>
        <time>2018-01-23T08:44:35Z</time>
      </trkpt>
      <trkpt lat="48.59445" lon="1.97741">
        <ele>159.24</ele>
        <time>2018-01-23T08:44:40Z</time>
      </trkpt>
      <trkpt lat="48.59447" lon="1.97752">
        <ele>159.72</ele>
        <time>2018-01-23T08:44:46Z</time>
      </trkpt>
      <trkpt lat="48.5945" lon="1.97772">
        <ele>159.72</ele>
        <time>2018-01-23T08:44:55Z</time>
      </trkpt>
      <trkpt lat="48.5945" lon="1.97776">
        <ele>160.2</ele>
        <time>2018-01-23T08:44:57Z</time>
      </trkpt>
      <trkpt lat="48.59455" lon="1.978">
        <ele>160.68</ele>
        <time>2018-01-23T08:45:09Z</time>
      </trkpt>
      <trkpt lat="48.59455" lon="1.97803">
        <ele>160.68</ele>
        <time>2018-01-23T08:45:12Z</time>
      </trkpt>
      <trkpt lat="48.59456" lon="1.9781">
        <ele>160.68</ele>
        <time>2018-01-23T08:45:16Z</time>
      </trkpt>
      <trkpt lat="48.59457" lon="1.97819">
        <ele>160.68</ele>
        <time>2018-01-23T08:45:21Z</time>
      </trkpt>
      <trkpt lat="48.59458" lon="1.97825">
        <ele>161.16</ele>
        <time>2018-01-23T08:45:24Z</time>
      </trkpt>
      <trkpt lat="48.59469" lon="1.9784">
        <ele>160.68</ele>
        <time>2018-01-23T08:45:32Z</time>
      </trkpt>
      <trkpt lat="48.5947" lon="1.9785">
        <ele>160.68</ele>
        <time>2018-01-23T08:45:37Z</time>
      </trkpt>
      <trkpt lat="48.59477" lon="1.97856">
        <ele>160.2</ele>
        <time>2018-01-23T08:45:41Z</time>
      </trkpt>
      <trkpt lat="48.59482" lon="1.97863">
        <ele>160.2</ele>
        <time>2018-01-23T08:45:45Z</time>
      </trkpt>
      <trkpt lat="48.59484" lon="1.97871">
        <ele>160.2</ele>
        <time>2018-01-23T08:45:48Z</time>
      </trkpt>
      <trkpt lat="48.59493" lon="1.97893">
        <ele>160.2</ele>
        <time>2018-01-23T08:46:00Z</time>
      </trkpt>
      <trkpt lat="48.59499" lon="1.97908">
        <ele>160.2</ele>
        <time>2018-01-23T08:46:09Z</time>
      </trkpt>
      <trkpt lat="48.59503" lon="1.9792">
        <ele>160.2</ele>
        <time>2018-01-23T08:46:16Z</time>
      </trkpt>
      <trkpt lat="48.59503" lon="1.9793">
        <ele>159.72</ele>
        <time>2018-01-23T08:46:20Z</time>
      </trkpt>
      <trkpt lat="48.59507" lon="1.97937">
        <ele>159.72</ele>
        <time>2018-01-23T08:46:24Z</time>
      </trkpt>
      <trkpt lat="48.59507" lon="1.97944">
        <ele>159.24</ele>
        <time>2018-01-23T08:46:27Z</time>
      </trkpt>
      <trkpt lat="48.59506" lon="1.97947">
        <ele>159.72</ele>
        <time>2018-01-23T08:46:29Z</time>
      </trkpt>
      <trkpt lat="48.59511" lon="1.97961">
        <ele>159.72</ele>
        <time>2018-01-23T08:46:36Z</time>
      </trkpt>
      <trkpt lat="48.59515" lon="1.97975">
        <ele>159.24</ele>
        <time>2018-01-23T08:46:42Z</time>
      </trkpt>
      <trkpt lat="48.59519" lon="1.97986">
        <ele>159.24</ele>
        <time>2018-01-23T08:46:55Z</time>
      </trkpt>
      <trkpt lat="48.59518" lon="1.97988">
        <ele>158.75</ele>
        <time>2018-01-23T08:47:13Z</time>
      </trkpt>
      <trkpt lat="48.59516" lon="1.97986">
        <ele>159.24</ele>
        <time>2018-01-23T08:47:34Z</time>
      </trkpt>
      <trkpt lat="48.59515" lon="1.97986">
        <ele>158.75</ele>
        <time>2018-01-23T08:47:58Z</time>
      </trkpt>
      <trkpt lat="48.59516" lon="1.97987">
        <ele>158.27</ele>
        <time>2018-01-23T08:48:16Z</time>
      </trkpt>
      <trkpt lat="48.59516" lon="1.97987">
        <ele>158.75</ele>
        <time>2018-01-23T08:48:20Z</time>
      </trkpt>
      <trkpt lat="48.59518" lon="1.97991">
        <ele>158.27</ele>
        <time>2018-01-23T08:48:22Z</time>
      </trkpt>
      <trkpt lat="48.59524" lon="1.98002">
        <ele>158.27</ele>
        <time>2018-01-23T08:48:28Z</time>
      </trkpt>
      <trkpt lat="48.59527" lon="1.98006">
        <ele>158.75</ele>
        <time>2018-01-23T08:48:31Z</time>
      </trkpt>
      <trkpt lat="48.59539" lon="1.98021">
        <ele>157.31</ele>
        <time>2018-01-23T08:48:42Z</time>
      </trkpt>
      <trkpt lat="48.59543" lon="1.98026">
        <ele>156.83</ele>
        <time>2018-01-23T08:48:46Z</time>
      </trkpt>
      <trkpt lat="48.59566" lon="1.98038">
        <ele>155.87</ele>
        <time>2018-01-23T08:49:01Z</time>
      </trkpt>
      <trkpt lat="48.59582" lon="1.98044">
        <ele>155.39</ele>
        <time>2018-01-23T08:49:13Z</time>
      </trkpt>
      <trkpt lat="48.59589" lon="1.98054">
        <ele>153.95</ele>
        <time>2018-01-23T08:49:21Z</time>
      </trkpt>
      <trkpt lat="48.59603" lon="1.98064">
        <ele>152.99</ele>
        <time>2018-01-23T08:49:27Z</time>
      </trkpt>
      <trkpt lat="48.59606" lon="1.98065">
        <ele>152.99</ele>
        <time>2018-01-23T08:49:30Z</time>
      </trkpt>
      <trkpt lat="48.59622" lon="1.98087">
        <ele>152.03</ele>
        <time>2018-01-23T08:49:44Z</time>
      </trkpt>
      <trkpt lat="48.59626" lon="1.98092">
        <ele>152.03</ele>
        <time>2018-01-23T08:49:49Z</time>
      </trkpt>
      <trkpt lat="48.5964" lon="1.98113">
        <ele>151.54</ele>
        <time>2018-01-23T08:50:01Z</time>
      </trkpt>
      <trkpt lat="48.59647" lon="1.98123">
        <ele>151.54</ele>
        <time>2018-01-23T08:50:08Z</time>
      </trkpt>
      <trkpt lat="48.59657" lon="1.98136">
        <ele>151.06</ele>
        <time>2018-01-23T08:50:17Z</time>
      </trkpt>
      <trkpt lat="48.59668" lon="1.98148">
        <ele>150.58</ele>
        <time>2018-01-23T08:50:26Z</time>
      </trkpt>
      <trkpt lat="48.59673" lon="1.98158">
        <ele>150.58</ele>
        <time>2018-01-23T08:50:31Z</time>
      </trkpt>
      <trkpt lat="48.59684" lon="1.98178">
        <ele>149.62</ele>
        <time>2018-01-23T08:50:43Z</time>
      </trkpt>
      <trkpt lat="48.59702" lon="1.98192">
        <ele>147.7</ele>
        <time>2018-01-23T08:50:56Z</time>
      </trkpt>
      <trkpt lat="48.59703" lon="1.98194">
        <ele>147.7</ele>
        <time>2018-01-23T08:50:59Z</time>
      </trkpt>
      <trkpt lat="48.59706" lon="1.98197">
        <ele>146.74</ele>
        <time>2018-01-23T08:51:02Z</time>
      </trkpt>
      <trkpt lat="48.59711" lon="1.982">
        <ele>146.26</ele>
        <time>2018-01-23T08:51:05Z</time>
      </trkpt>
      <trkpt lat="48.59728" lon="1.98204">
        <ele>144.82</ele>
        <time>2018-01-23T08:51:14Z</time>
      </trkpt>
      <trkpt lat="48.59729" lon="1.98204">
        <ele>144.34</ele>
        <time>2018-01-23T08:51:17Z</time>
      </trkpt>
      <trkpt lat="48.59746" lon="1.98213">
        <ele>142.41</ele>
        <time>2018-01-23T08:51:28Z</time>
      </trkpt>
      <trkpt lat="48.59766" lon="1.98221">
        <ele>140.97</ele>
        <time>2018-01-23T08:51:41Z</time>
      </trkpt>
      <trkpt lat="48.59771" lon="1.98225">
        <ele>140.01</ele>
        <time>2018-01-23T08:51:47Z</time>
      </trkpt>
      <trkpt lat="48.5978" lon="1.98236">
        <ele>139.53</ele>
        <time>2018-01-23T08:51:55Z</time>
      </trkpt>
      <trkpt lat="48.59785" lon="1.98246">
        <ele>137.61</ele>
        <time>2018-01-23T08:52:02Z</time>
      </trkpt>
      <trkpt lat="48.5979" lon="1.9825">
        <ele>136.64</ele>
        <time>2018-01-23T08:52:06Z</time>
      </trkpt>
      <trkpt lat="48.5981" lon="1.98252">
        <ele>134.24</ele>
        <time>2018-01-23T08:52:17Z</time>
      </trkpt>
      <trkpt lat="48.59816" lon="1.98254">
        <ele>133.28</ele>
        <time>2018-01-23T08:52:23Z</time>
      </trkpt>
      <trkpt lat="48.59827" lon="1.98261">
        <ele>130.4</ele>
        <time>2018-01-23T08:52:33Z</time>
      </trkpt>
      <trkpt lat="48.59837" lon="1.98267">
        <ele>128.95</ele>
        <time>2018-01-23T08:52:42Z</time>
      </trkpt>
      <trkpt lat="48.59844" lon="1.98272">
        <ele>128.47</ele>
        <time>2018-01-23T08:52:48Z</time>
      </trkpt>
      <trkpt lat="48.59856" lon="1.98276">
        <ele>126.55</ele>
        <time>2018-01-23T08:52:58Z</time>
      </trkpt>
      <trkpt lat="48.59857" lon="1.98276">
        <ele>126.55</ele>
        <time>2018-01-23T08:53:00Z</time>
      </trkpt>
      <trkpt lat="48.59861" lon="1.9828">
        <ele>124.63</ele>
        <time>2018-01-23T08:53:10Z</time>
      </trkpt>
      <trkpt lat="48.59864" lon="1.98283">
        <ele>124.63</ele>
        <time>2018-01-23T08:53:13Z</time>
      </trkpt>
      <trkpt lat="48.59881" lon="1.98302">
        <ele>123.67</ele>
        <time>2018-01-23T08:53:23Z</time>
      </trkpt>
      <trkpt lat="48.59891" lon="1.98315">
        <ele>123.19</ele>
        <time>2018-01-23T08:53:30Z</time>
      </trkpt>
      <trkpt lat="48.59895" lon="1.98322">
        <ele>123.19</ele>
        <time>2018-01-23T08:53:33Z</time>
      </trkpt>
      <trkpt lat="48.59905" lon="1.98339">
        <ele>122.71</ele>
        <time>2018-01-23T08:53:44Z</time>
      </trkpt>
      <trkpt lat="48.59907" lon="1.98341">
        <ele>122.22</ele>
        <time>2018-01-23T08:53:45Z</time>
      </trkpt>
      <trkpt lat="48.59913" lon="1.98346">
        <ele>121.74</ele>
        <time>2018-01-23T08:53:49Z</time>
      </trkpt>
      <trkpt lat="48.59917" lon="1.98349">
        <ele>121.26</ele>
        <time>2018-01-23T08:53:53Z</time>
      </trkpt>
      <trkpt lat="48.5992" lon="1.98353">
        <ele>121.26</ele>
        <time>2018-01-23T08:53:56Z</time>
      </trkpt>
      <trkpt lat="48.59934" lon="1.98371">
        <ele>120.78</ele>
        <time>2018-01-23T08:54:08Z</time>
      </trkpt>
      <trkpt lat="48.59939" lon="1.98379">
        <ele>120.78</ele>
        <time>2018-01-23T08:54:13Z</time>
      </trkpt>
      <trkpt lat="48.59944" lon="1.98392">
        <ele>120.3</ele>
        <time>2018-01-23T08:54:21Z</time>
      </trkpt>
      <trkpt lat="48.59944" lon="1.98394">
        <ele>120.3</ele>
        <time>2018-01-23T08:54:22Z</time>
      </trkpt>
      <trkpt lat="48.59951" lon="1.98405">
        <ele>119.82</ele>
        <time>2018-01-23T08:54:27Z</time>
      </trkpt>
      <trkpt lat="48.59958" lon="1.98413">
        <ele>119.34</ele>
        <time>2018-01-23T08:54:32Z</time>
      </trkpt>
      <trkpt lat="48.59968" lon="1.98426">
        <ele>118.86</ele>
        <time>2018-01-23T08:54:39Z</time>
      </trkpt>
      <trkpt lat="48.59974" lon="1.98432">
        <ele>118.38</ele>
        <time>2018-01-23T08:54:45Z</time>
      </trkpt>
      <trkpt lat="48.59981" lon="1.9844">
        <ele>117.9</ele>
        <time>2018-01-23T08:54:52Z</time>
      </trkpt>
      <trkpt lat="48.59991" lon="1.98453">
        <ele>117.42</ele>
        <time>2018-01-23T08:55:01Z</time>
      </trkpt>
      <trkpt lat="48.60007" lon="1.9847">
        <ele>116.46</ele>
        <time>2018-01-23T08:55:13Z</time>
      </trkpt>
      <trkpt lat="48.60008" lon="1.98473">
        <ele>116.46</ele>
        <time>2018-01-23T08:55:15Z</time>
      </trkpt>
      <trkpt lat="48.60013" lon="1.98483">
        <ele>115.5</ele>
        <time>2018-01-23T08:55:22Z</time>
      </trkpt>
      <trkpt lat="48.60023" lon="1.9851">
        <ele>114.53</ele>
        <time>2018-01-23T08:55:34Z</time>
      </trkpt>
      <trkpt lat="48.60023" lon="1.98515">
        <ele>114.05</ele>
        <time>2018-01-23T08:55:36Z</time>
      </trkpt>
      <trkpt lat="48.60025" lon="1.9852">
        <ele>114.05</ele>
        <time>2018-01-23T08:55:38Z</time>
      </trkpt>
      <trkpt lat="48.6003" lon="1.98533">
        <ele>113.57</ele>
        <time>2018-01-23T08:55:44Z</time>
      </trkpt>
      <trkpt lat="48.60038" lon="1.98544">
        <ele>113.09</ele>
        <time>2018-01-23T08:55:52Z</time>
      </trkpt>
      <trkpt lat="48.60047" lon="1.98558">
        <ele>112.61</ele>
        <time>2018-01-23T08:55:59Z</time>
      </trkpt>
      <trkpt lat="48.60058" lon="1.98571">
        <ele>111.65</ele>
        <time>2018-01-23T08:56:10Z</time>
      </trkpt>
      <trkpt lat="48.60076" lon="1.98586">
        <ele>110.69</ele>
        <time>2018-01-23T08:56:24Z</time>
      </trkpt>
      <trkpt lat="48.60087" lon="1.98595">
        <ele>109.73</ele>
        <time>2018-01-23T08:56:36Z</time>
      </trkpt>
      <trkpt lat="48.60099" lon="1.98614">
        <ele>109.25</ele>
        <time>2018-01-23T08:56:47Z</time>
      </trkpt>
      <trkpt lat="48.60101" lon="1.98618">
        <ele>108.77</ele>
        <time>2018-01-23T08:56:50Z</time>
      </trkpt>
      <trkpt lat="48.60108" lon="1.98633">
        <ele>108.77</ele>
        <time>2018-01-23T08:56:58Z</time>
      </trkpt>
      <trkpt lat="48.60114" lon="1.98651">
        <ele>108.29</ele>
        <time>2018-01-23T08:57:09Z</time>
      </trkpt>
      <trkpt lat="48.60114" lon="1.98653">
        <ele>108.29</ele>
        <time>2018-01-23T08:57:10Z</time>
      </trkpt>
      <trkpt lat="48.60115" lon="1.98662">
        <ele>108.29</ele>
        <time>2018-01-23T08:57:14Z</time>
      </trkpt>
      <trkpt lat="48.60117" lon="1.98673">
        <ele>107.81</ele>
        <time>2018-01-23T08:57:20Z</time>
      </trkpt>
      <trkpt lat="48.60123" lon="1.98676">
        <ele>107.81</ele>
        <time>2018-01-23T08:57:23Z</time>
      </trkpt>
      <trkpt lat="48.60131" lon="1.98682">
        <ele>107.32</ele>
        <time>2018-01-23T08:57:36Z</time>
      </trkpt>
      <trkpt lat="48.60131" lon="1.9868">
        <ele>107.81</ele>
        <time>2018-01-23T08:58:00Z</time>
      </trkpt>
      <trkpt lat="48.60131" lon="1.98679">
        <ele>107.81</ele>
        <time>2018-01-23T08:58:28Z</time>
      </trkpt>
      <trkpt lat="48.60132" lon="1.98678">
        <ele>107.32</ele>
        <time>2018-01-23T08:58:43Z</time>
      </trkpt>
      <trkpt lat="48.60131" lon="1.98678">
        <ele>107.32</ele>
        <time>2018-01-23T08:58:59Z</time>
      </trkpt>
      <trkpt lat="48.60134" lon="1.98678">
        <ele>107.81</ele>
        <time>2018-01-23T08:59:06Z</time>
      </trkpt>
      <trkpt lat="48.60141" lon="1.98672">
        <ele>107.32</ele>
        <time>2018-01-23T08:59:13Z</time>
      </trkpt>
      <trkpt lat="48.60143" lon="1.98669">
        <ele>107.32</ele>
        <time>2018-01-23T08:59:15Z</time>
      </trkpt>
      <trkpt lat="48.60149" lon="1.98661">
        <ele>106.84</ele>
        <time>2018-01-23T08:59:27Z</time>
      </trkpt>
      <trkpt lat="48.60155" lon="1.98654">
        <ele>106.84</ele>
        <time>2018-01-23T08:59:33Z</time>
      </trkpt>
      <trkpt lat="48.60157" lon="1.98653">
        <ele>106.36</ele>
        <time>2018-01-23T08:59:35Z</time>
      </trkpt>
      <trkpt lat="48.60164" lon="1.98648">
        <ele>105.88</ele>
        <time>2018-01-23T08:59:41Z</time>
      </trkpt>
      <trkpt lat="48.60166" lon="1.98647">
        <ele>105.88</ele>
        <time>2018-01-23T08:59:43Z</time>
      </trkpt>
      <trkpt lat="48.60177" lon="1.98635">
        <ele>105.4</ele>
        <time>2018-01-23T08:59:53Z</time>
      </trkpt>
      <trkpt lat="48.60179" lon="1.98631">
        <ele>104.92</ele>
        <time>2018-01-23T08:59:56Z</time>
      </trkpt>
      <trkpt lat="48.60185" lon="1.98626">
        <ele>104.44</ele>
        <time>2018-01-23T09:00:04Z</time>
      </trkpt>
      <trkpt lat="48.60197" lon="1.98619">
        <ele>104.92</ele>
        <time>2018-01-23T09:00:14Z</time>
      </trkpt>
      <trkpt lat="48.60211" lon="1.98602">
        <ele>103.96</ele>
        <time>2018-01-23T09:00:25Z</time>
      </trkpt>
      <trkpt lat="48.60215" lon="1.98597">
        <ele>103.96</ele>
        <time>2018-01-23T09:00:28Z</time>
      </trkpt>
      <trkpt lat="48.6023" lon="1.98586">
        <ele>103.48</ele>
        <time>2018-01-23T09:00:38Z</time>
      </trkpt>
      <trkpt lat="48.60244" lon="1.98573">
        <ele>103.48</ele>
        <time>2018-01-23T09:00:50Z</time>
      </trkpt>
      <trkpt lat="48.60258" lon="1.98558">
        <ele>102.52</ele>
        <time>2018-01-23T09:01:03Z</time>
      </trkpt>
      <trkpt lat="48.60267" lon="1.98546">
        <ele>102.52</ele>
        <time>2018-01-23T09:01:11Z</time>
      </trkpt>
      <trkpt lat="48.60272" lon="1.98533">
        <ele>102.52</ele>
        <time>2018-01-23T09:01:19Z</time>
      </trkpt>
      <trkpt lat="48.60279" lon="1.98519">
        <ele>102.52</ele>
        <time>2018-01-23T09:01:29Z</time>
      </trkpt>
      <trkpt lat="48.60281" lon="1.98518">
        <ele>103</ele>
        <time>2018-01-23T09:01:30Z</time>
      </trkpt>
      <trkpt lat="48.60284" lon="1.98514">
        <ele>102.52</ele>
        <time>2018-01-23T09:01:32Z</time>
      </trkpt>
      <trkpt lat="48.60286" lon="1.98501">
        <ele>103.48</ele>
        <time>2018-01-23T09:01:39Z</time>
      </trkpt>
      <trkpt lat="48.60289" lon="1.98495">
        <ele>103</ele>
        <time>2018-01-23T09:01:43Z</time>
      </trkpt>
      <trkpt lat="48.60302" lon="1.98479">
        <ele>105.4</ele>
        <time>2018-01-23T09:01:54Z</time>
      </trkpt>
      <trkpt lat="48.60311" lon="1.98463">
        <ele>104.44</ele>
        <time>2018-01-23T09:02:05Z</time>
      </trkpt>
      <trkpt lat="48.60314" lon="1.98462">
        <ele>104.44</ele>
        <time>2018-01-23T09:02:07Z</time>
      </trkpt>
      <trkpt lat="48.60322" lon="1.98454">
        <ele>104.44</ele>
        <time>2018-01-23T09:02:16Z</time>
      </trkpt>
      <trkpt lat="48.60333" lon="1.98439">
        <ele>103.96</ele>
        <time>2018-01-23T09:02:27Z</time>
      </trkpt>
      <trkpt lat="48.60334" lon="1.98434">
        <ele>103.48</ele>
        <time>2018-01-23T09:02:31Z</time>
      </trkpt>
      <trkpt lat="48.60343" lon="1.98428">
        <ele>103</ele>
        <time>2018-01-23T09:02:39Z</time>
      </trkpt>
      <trkpt lat="48.60347" lon="1.98424">
        <ele>102.52</ele>
        <time>2018-01-23T09:02:42Z</time>
      </trkpt>
      <trkpt lat="48.60354" lon="1.98416">
        <ele>102.04</ele>
        <time>2018-01-23T09:02:49Z</time>
      </trkpt>
      <trkpt lat="48.60357" lon="1.98414">
        <ele>102.04</ele>
        <time>2018-01-23T09:02:51Z</time>
      </trkpt>
      <trkpt lat="48.60369" lon="1.98406">
        <ele>100.6</ele>
        <time>2018-01-23T09:03:00Z</time>
      </trkpt>
      <trkpt lat="48.60371" lon="1.98405">
        <ele>100.6</ele>
        <time>2018-01-23T09:03:02Z</time>
      </trkpt>
      <trkpt lat="48.6039" lon="1.984">
        <ele>99.63</ele>
        <time>2018-01-23T09:03:15Z</time>
      </trkpt>
      <trkpt lat="48.60403" lon="1.98397">
        <ele>99.15</ele>
        <time>2018-01-23T09:03:23Z</time>
      </trkpt>
      <trkpt lat="48.60409" lon="1.98394">
        <ele>99.15</ele>
        <time>2018-01-23T09:03:28Z</time>
      </trkpt>
      <trkpt lat="48.60414" lon="1.98392">
        <ele>99.15</ele>
        <time>2018-01-23T09:03:31Z</time>
      </trkpt>
      <trkpt lat="48.60432" lon="1.98388">
        <ele>99.15</ele>
        <time>2018-01-23T09:03:44Z</time>
      </trkpt>
      <trkpt lat="48.60441" lon="1.98383">
        <ele>99.15</ele>
        <time>2018-01-23T09:03:51Z</time>
      </trkpt>
      <trkpt lat="48.60455" lon="1.98379">
        <ele>99.15</ele>
        <time>2018-01-23T09:04:05Z</time>
      </trkpt>
      <trkpt lat="48.60471" lon="1.98374">
        <ele>99.15</ele>
        <time>2018-01-23T09:04:16Z</time>
      </trkpt>
      <trkpt lat="48.60475" lon="1.98373">
        <ele>99.15</ele>
        <time>2018-01-23T09:04:18Z</time>
      </trkpt>
      <trkpt lat="48.60479" lon="1.98373">
        <ele>99.15</ele>
        <time>2018-01-23T09:04:20Z</time>
      </trkpt>
      <trkpt lat="48.60498" lon="1.98369">
        <ele>99.15</ele>
        <time>2018-01-23T09:04:33Z</time>
      </trkpt>
      <trkpt lat="48.60515" lon="1.98367">
        <ele>99.63</ele>
        <time>2018-01-23T09:04:43Z</time>
      </trkpt>
      <trkpt lat="48.60524" lon="1.98363">
        <ele>100.11</ele>
        <time>2018-01-23T09:04:51Z</time>
      </trkpt>
      <trkpt lat="48.60526" lon="1.98354">
        <ele>100.6</ele>
        <time>2018-01-23T09:04:57Z</time>
      </trkpt>
      <trkpt lat="48.60523" lon="1.98352">
        <ele>100.6</ele>
        <time>2018-01-23T09:04:59Z</time>
      </trkpt>
      <trkpt lat="48.60523" lon="1.98344">
        <ele>100.6</ele>
        <time>2018-01-23T09:05:03Z</time>
      </trkpt>
      <trkpt lat="48.6052" lon="1.98341">
        <ele>100.6</ele>
        <time>2018-01-23T09:05:06Z</time>
      </trkpt>
      <trkpt lat="48.6051" lon="1.98328">
        <ele>100.6</ele>
        <time>2018-01-23T09:05:16Z</time>
      </trkpt>
      <trkpt lat="48.60496" lon="1.98309">
        <ele>100.6</ele>
        <time>2018-01-23T09:05:27Z</time>
      </trkpt>
      <trkpt lat="48.60489" lon="1.983">
        <ele>100.6</ele>
        <time>2018-01-23T09:05:34Z</time>
      </trkpt>
      <trkpt lat="48.60485" lon="1.98295">
        <ele>100.6</ele>
        <time>2018-01-23T09:05:38Z</time>
      </trkpt>
      <trkpt lat="48.60482" lon="1.98291">
        <ele>100.6</ele>
        <time>2018-01-23T09:05:41Z</time>
      </trkpt>
      <trkpt lat="48.60474" lon="1.98281">
        <ele>100.6</ele>
        <time>2018-01-23T09:05:50Z</time>
      </trkpt>
      <trkpt lat="48.60467" lon="1.98274">
        <ele>100.6</ele>
        <time>2018-01-23T09:05:57Z</time>
      </trkpt>
      <trkpt lat="48.60451" lon="1.9826">
        <ele>100.6</ele>
        <time>2018-01-23T09:06:09Z</time>
      </trkpt>
      <trkpt lat="48.60438" lon="1.9825">
        <ele>101.08</ele>
        <time>2018-01-23T09:06:21Z</time>
      </trkpt>
      <trkpt lat="48.60426" lon="1.98238">
        <ele>100.6</ele>
        <time>2018-01-23T09:06:29Z</time>
      </trkpt>
      <trkpt lat="48.60423" lon="1.98235">
        <ele>101.08</ele>
        <time>2018-01-23T09:06:31Z</time>
      </trkpt>
      <trkpt lat="48.60412" lon="1.98228">
        <ele>101.08</ele>
        <time>2018-01-23T09:06:41Z</time>
      </trkpt>
      <trkpt lat="48.60406" lon="1.9822">
        <ele>101.08</ele>
        <time>2018-01-23T09:06:47Z</time>
      </trkpt>
      <trkpt lat="48.60397" lon="1.98208">
        <ele>101.56</ele>
        <time>2018-01-23T09:06:55Z</time>
      </trkpt>
      <trkpt lat="48.60386" lon="1.98194">
        <ele>102.04</ele>
        <time>2018-01-23T09:07:04Z</time>
      </trkpt>
      <trkpt lat="48.60385" lon="1.98194">
        <ele>102.04</ele>
        <time>2018-01-23T09:07:05Z</time>
      </trkpt>
      <trkpt lat="48.6038" lon="1.98188">
        <ele>101.56</ele>
        <time>2018-01-23T09:07:09Z</time>
      </trkpt>
      <trkpt lat="48.60367" lon="1.98173">
        <ele>103</ele>
        <time>2018-01-23T09:07:20Z</time>
      </trkpt>
      <trkpt lat="48.60352" lon="1.98154">
        <ele>103</ele>
        <time>2018-01-23T09:07:32Z</time>
      </trkpt>
      <trkpt lat="48.60344" lon="1.98146">
        <ele>103.96</ele>
        <time>2018-01-23T09:07:38Z</time>
      </trkpt>
      <trkpt lat="48.60339" lon="1.98143">
        <ele>103.96</ele>
        <time>2018-01-23T09:07:42Z</time>
      </trkpt>
      <trkpt lat="48.6033" lon="1.98135">
        <ele>103.96</ele>
        <time>2018-01-23T09:07:50Z</time>
      </trkpt>
      <trkpt lat="48.60318" lon="1.98123">
        <ele>104.92</ele>
        <time>2018-01-23T09:07:59Z</time>
      </trkpt>
      <trkpt lat="48.60314" lon="1.9812">
        <ele>104.92</ele>
        <time>2018-01-23T09:08:02Z</time>
      </trkpt>
      <trkpt lat="48.60312" lon="1.98118">
        <ele>105.4</ele>
        <time>2018-01-23T09:08:04Z</time>
      </trkpt>
      <trkpt lat="48.60301" lon="1.98106">
        <ele>104.92</ele>
        <time>2018-01-23T09:08:13Z</time>
      </trkpt>
      <trkpt lat="48.60299" lon="1.98102">
        <ele>105.4</ele>
        <time>2018-01-23T09:08:16Z</time>
      </trkpt>
      <trkpt lat="48.6029" lon="1.98093">
        <ele>105.88</ele>
        <time>2018-01-23T09:08:23Z</time>
      </trkpt>
      <trkpt lat="48.60286" lon="1.98088">
        <ele>105.4</ele>
        <time>2018-01-23T09:08:26Z</time>
      </trkpt>
      <trkpt lat="48.60281" lon="1.98083">
        <ele>105.4</ele>
        <time>2018-01-23T09:08:30Z</time>
      </trkpt>
      <trkpt lat="48.60266" lon="1.98064">
        <ele>105.88</ele>
        <time>2018-01-23T09:08:41Z</time>
      </trkpt>
      <trkpt lat="48.60264" lon="1.98063">
        <ele>105.88</ele>
        <time>2018-01-23T09:08:42Z</time>
      </trkpt>
      <trkpt lat="48.60257" lon="1.98058">
        <ele>106.36</ele>
        <time>2018-01-23T09:08:48Z</time>
      </trkpt>
      <trkpt lat="48.60247" lon="1.9805">
        <ele>107.32</ele>
        <time>2018-01-23T09:08:56Z</time>
      </trkpt>
      <trkpt lat="48.6024" lon="1.9804">
        <ele>107.32</ele>
        <time>2018-01-23T09:09:01Z</time>
      </trkpt>
      <trkpt lat="48.60236" lon="1.98035">
        <ele>107.32</ele>
        <time>2018-01-23T09:09:04Z</time>
      </trkpt>
      <trkpt lat="48.60227" lon="1.98025">
        <ele>107.81</ele>
        <time>2018-01-23T09:09:12Z</time>
      </trkpt>
      <trkpt lat="48.60224" lon="1.98021">
        <ele>107.81</ele>
        <time>2018-01-23T09:09:16Z</time>
      </trkpt>
      <trkpt lat="48.60218" lon="1.98015">
        <ele>108.29</ele>
        <time>2018-01-23T09:09:20Z</time>
      </trkpt>
      <trkpt lat="48.60211" lon="1.98005">
        <ele>108.77</ele>
        <time>2018-01-23T09:09:27Z</time>
      </trkpt>
      <trkpt lat="48.60203" lon="1.97999">
        <ele>109.25</ele>
        <time>2018-01-23T09:09:33Z</time>
      </trkpt>
      <trkpt lat="48.60194" lon="1.97985">
        <ele>109.73</ele>
        <time>2018-01-23T09:09:42Z</time>
      </trkpt>
      <trkpt lat="48.60189" lon="1.97976">
        <ele>109.73</ele>
        <time>2018-01-23T09:09:46Z</time>
      </trkpt>
      <trkpt lat="48.60186" lon="1.97971">
        <ele>109.25</ele>
        <time>2018-01-23T09:09:48Z</time>
      </trkpt>
      <trkpt lat="48.60176" lon="1.97965">
        <ele>110.69</ele>
        <time>2018-01-23T09:09:55Z</time>
      </trkpt>
      <trkpt lat="48.60168" lon="1.9796">
        <ele>109.73</ele>
        <time>2018-01-23T09:10:01Z</time>
      </trkpt>
      <trkpt lat="48.60156" lon="1.97946">
        <ele>110.21</ele>
        <time>2018-01-23T09:10:13Z</time>
      </trkpt>
      <trkpt lat="48.60144" lon="1.97929">
        <ele>109.73</ele>
        <time>2018-01-23T09:10:23Z</time>
      </trkpt>
      <trkpt lat="48.60142" lon="1.97926">
        <ele>109.73</ele>
        <time>2018-01-23T09:10:24Z</time>
      </trkpt>
      <trkpt lat="48.60139" lon="1.97923">
        <ele>110.21</ele>
        <time>2018-01-23T09:10:27Z</time>
      </trkpt>
      <trkpt lat="48.60133" lon="1.97918">
        <ele>110.21</ele>
        <time>2018-01-23T09:10:33Z</time>
      </trkpt>
      <trkpt lat="48.60129" lon="1.97913">
        <ele>110.69</ele>
        <time>2018-01-23T09:10:36Z</time>
      </trkpt>
      <trkpt lat="48.60124" lon="1.9791">
        <ele>110.69</ele>
        <time>2018-01-23T09:10:40Z</time>
      </trkpt>
      <trkpt lat="48.60112" lon="1.97893">
        <ele>110.69</ele>
        <time>2018-01-23T09:10:50Z</time>
      </trkpt>
      <trkpt lat="48.60095" lon="1.97875">
        <ele>111.65</ele>
        <time>2018-01-23T09:11:02Z</time>
      </trkpt>
      <trkpt lat="48.60092" lon="1.97872">
        <ele>111.65</ele>
        <time>2018-01-23T09:11:05Z</time>
      </trkpt>
      <trkpt lat="48.60087" lon="1.97865">
        <ele>112.13</ele>
        <time>2018-01-23T09:11:11Z</time>
      </trkpt>
      <trkpt lat="48.60077" lon="1.97849">
        <ele>112.61</ele>
        <time>2018-01-23T09:11:18Z</time>
      </trkpt>
      <trkpt lat="48.60065" lon="1.97843">
        <ele>112.61</ele>
        <time>2018-01-23T09:11:29Z</time>
      </trkpt>
      <trkpt lat="48.60058" lon="1.97835">
        <ele>113.57</ele>
        <time>2018-01-23T09:11:36Z</time>
      </trkpt>
      <trkpt lat="48.60054" lon="1.9783">
        <ele>113.57</ele>
        <time>2018-01-23T09:11:40Z</time>
      </trkpt>
      <trkpt lat="48.60048" lon="1.97824">
        <ele>113.09</ele>
        <time>2018-01-23T09:11:44Z</time>
      </trkpt>
      <trkpt lat="48.6004" lon="1.97813">
        <ele>113.57</ele>
        <time>2018-01-23T09:11:50Z</time>
      </trkpt>
      <trkpt lat="48.60027" lon="1.97797">
        <ele>114.05</ele>
        <time>2018-01-23T09:12:03Z</time>
      </trkpt>
      <trkpt lat="48.60026" lon="1.97796">
        <ele>113.57</ele>
        <time>2018-01-23T09:12:04Z</time>
      </trkpt>
      <trkpt lat="48.60015" lon="1.97786">
        <ele>115.5</ele>
        <time>2018-01-23T09:12:16Z</time>
      </trkpt>
      <trkpt lat="48.60012" lon="1.97789">
        <ele>115.01</ele>
        <time>2018-01-23T09:12:34Z</time>
      </trkpt>
      <trkpt lat="48.60009" lon="1.97787">
        <ele>115.5</ele>
        <time>2018-01-23T09:12:50Z</time>
      </trkpt>
      <trkpt lat="48.60007" lon="1.97788">
        <ele>115.5</ele>
        <time>2018-01-23T09:13:09Z</time>
      </trkpt>
      <trkpt lat="48.60008" lon="1.9779">
        <ele>115.5</ele>
        <time>2018-01-23T09:13:33Z</time>
      </trkpt>
      <trkpt lat="48.60007" lon="1.9779">
        <ele>115.5</ele>
        <time>2018-01-23T09:13:54Z</time>
      </trkpt>
      <trkpt lat="48.60003" lon="1.97775">
        <ele>115.98</ele>
        <time>2018-01-23T09:14:07Z</time>
      </trkpt>
      <trkpt lat="48.60002" lon="1.97769">
        <ele>115.98</ele>
        <time>2018-01-23T09:14:10Z</time>
      </trkpt>
      <trkpt lat="48.6" lon="1.97758">
        <ele>116.46</ele>
        <time>2018-01-23T09:14:16Z</time>
      </trkpt>
      <trkpt lat="48.59992" lon="1.97739">
        <ele>116.46</ele>
        <time>2018-01-23T09:14:26Z</time>
      </trkpt>
      <trkpt lat="48.59981" lon="1.97718">
        <ele>116.46</ele>
        <time>2018-01-23T09:14:37Z</time>
      </trkpt>
      <trkpt lat="48.59968" lon="1.97701">
        <ele>116.46</ele>
        <time>2018-01-23T09:14:46Z</time>
      </trkpt>
      <trkpt lat="48.59966" lon="1.97696">
        <ele>116.94</ele>
        <time>2018-01-23T09:14:49Z</time>
      </trkpt>
      <trkpt lat="48.59957" lon="1.97686">
        <ele>116.94</ele>
        <time>2018-01-23T09:15:01Z</time>
      </trkpt>
      <trkpt lat="48.59956" lon="1.97687">
        <ele>117.42</ele>
        <time>2018-01-23T09:15:16Z</time>
      </trkpt>
      <trkpt lat="48.59956" lon="1.97677">
        <ele>117.42</ele>
        <time>2018-01-23T09:15:21Z</time>
      </trkpt>
      <trkpt lat="48.59951" lon="1.97666">
        <ele>117.9</ele>
        <time>2018-01-23T09:15:27Z</time>
      </trkpt>
      <trkpt lat="48.59947" lon="1.97658">
        <ele>118.38</ele>
        <time>2018-01-23T09:15:32Z</time>
      </trkpt>
      <trkpt lat="48.59944" lon="1.97642">
        <ele>119.34</ele>
        <time>2018-01-23T09:15:40Z</time>
      </trkpt>
      <trkpt lat="48.59933" lon="1.97625">
        <ele>120.3</ele>
        <time>2018-01-23T09:15:52Z</time>
      </trkpt>
      <trkpt lat="48.59926" lon="1.97612">
        <ele>120.78</ele>
        <time>2018-01-23T09:16:01Z</time>
      </trkpt>
      <trkpt lat="48.59922" lon="1.97605">
        <ele>120.78</ele>
        <time>2018-01-23T09:16:07Z</time>
      </trkpt>
      <trkpt lat="48.59916" lon="1.97593">
        <ele>121.26</ele>
        <time>2018-01-23T09:16:14Z</time>
      </trkpt>
      <trkpt lat="48.59914" lon="1.97589">
        <ele>121.26</ele>
        <time>2018-01-23T09:16:16Z</time>
      </trkpt>
      <trkpt lat="48.59903" lon="1.97569">
        <ele>121.74</ele>
        <time>2018-01-23T09:16:29Z</time>
      </trkpt>
      <trkpt lat="48.59903" lon="1.97569">
        <ele>122.22</ele>
        <time>2018-01-23T09:16:30Z</time>
      </trkpt>
      <trkpt lat="48.599" lon="1.97563">
        <ele>122.22</ele>
        <time>2018-01-23T09:16:33Z</time>
      </trkpt>
      <trkpt lat="48.59895" lon="1.97552">
        <ele>123.19</ele>
        <time>2018-01-23T09:16:39Z</time>
      </trkpt>
      <trkpt lat="48.59895" lon="1.9755">
        <ele>123.19</ele>
        <time>2018-01-23T09:16:41Z</time>
      </trkpt>
      <trkpt lat="48.59891" lon="1.97539">
        <ele>123.19</ele>
        <time>2018-01-23T09:16:47Z</time>
      </trkpt>
      <trkpt lat="48.59883" lon="1.97523">
        <ele>124.15</ele>
        <time>2018-01-23T09:16:57Z</time>
      </trkpt>
      <trkpt lat="48.59881" lon="1.97518">
        <ele>123.67</ele>
        <time>2018-01-23T09:17:00Z</time>
      </trkpt>
      <trkpt lat="48.59877" lon="1.97509">
        <ele>124.63</ele>
        <time>2018-01-23T09:17:05Z</time>
      </trkpt>
      <trkpt lat="48.59874" lon="1.97502">
        <ele>124.15</ele>
        <time>2018-01-23T09:17:08Z</time>
      </trkpt>
      <trkpt lat="48.59863" lon="1.97482">
        <ele>124.15</ele>
        <time>2018-01-23T09:17:16Z</time>
      </trkpt>
      <trkpt lat="48.59858" lon="1.9747">
        <ele>125.11</ele>
        <time>2018-01-23T09:17:24Z</time>
      </trkpt>
      <trkpt lat="48.59852" lon="1.97457">
        <ele>125.59</ele>
        <time>2018-01-23T09:17:32Z</time>
      </trkpt>
      <trkpt lat="48.59849" lon="1.9745">
        <ele>126.55</ele>
        <time>2018-01-23T09:17:37Z</time>
      </trkpt>
      <trkpt lat="48.59842" lon="1.97438">
        <ele>127.03</ele>
        <time>2018-01-23T09:17:44Z</time>
      </trkpt>
      <trkpt lat="48.5984" lon="1.97434">
        <ele>127.03</ele>
        <time>2018-01-23T09:17:46Z</time>
      </trkpt>
      <trkpt lat="48.59832" lon="1.97411">
        <ele>127.51</ele>
        <time>2018-01-23T09:17:58Z</time>
      </trkpt>
      <trkpt lat="48.59831" lon="1.97408">
        <ele>127.51</ele>
        <time>2018-01-23T09:18:00Z</time>
      </trkpt>
      <trkpt lat="48.59829" lon="1.97403">
        <ele>127.99</ele>
        <time>2018-01-23T09:18:04Z</time>
      </trkpt>
      <trkpt lat="48.59823" lon="1.97393">
        <ele>128.47</ele>
        <time>2018-01-23T09:18:11Z</time>
      </trkpt>
      <trkpt lat="48.59815" lon="1.97373">
        <ele>128.95</ele>
        <time>2018-01-23T09:18:21Z</time>
      </trkpt>
      <trkpt lat="48.59812" lon="1.97364">
        <ele>129.43</ele>
        <time>2018-01-23T09:18:25Z</time>
      </trkpt>
      <trkpt lat="48.59802" lon="1.97345">
        <ele>129.92</ele>
        <time>2018-01-23T09:18:38Z</time>
      </trkpt>
      <trkpt lat="48.59802" lon="1.97344">
        <ele>129.43</ele>
        <time>2018-01-23T09:18:40Z</time>
      </trkpt>
      <trkpt lat="48.59792" lon="1.97328">
        <ele>130.88</ele>
        <time>2018-01-23T09:18:52Z</time>
      </trkpt>
      <trkpt lat="48.59786" lon="1.97314">
        <ele>130.88</ele>
        <time>2018-01-23T09:18:59Z</time>
      </trkpt>
      <trkpt lat="48.59784" lon="1.97311">
        <ele>130.88</ele>
        <time>2018-01-23T09:19:01Z</time>
      </trkpt>
      <trkpt lat="48.59782" lon="1.97306">
        <ele>131.36</ele>
        <time>2018-01-23T09:19:04Z</time>
      </trkpt>
      <trkpt lat="48.59778" lon="1.97294">
        <ele>131.36</ele>
        <time>2018-01-23T09:19:09Z</time>
      </trkpt>
      <trkpt lat="48.59764" lon="1.97269">
        <ele>132.8</ele>
        <time>2018-01-23T09:19:22Z</time>
      </trkpt>
      <trkpt lat="48.59759" lon="1.97258">
        <ele>133.28</ele>
        <time>2018-01-23T09:19:33Z</time>
      </trkpt>
      <trkpt lat="48.59759" lon="1.97256">
        <ele>133.28</ele>
        <time>2018-01-23T09:19:34Z</time>
      </trkpt>
      <trkpt lat="48.59753" lon="1.97247">
        <ele>133.76</ele>
        <time>2018-01-23T09:19:39Z</time>
      </trkpt>
      <trkpt lat="48.5975" lon="1.97242">
        <ele>133.76</ele>
        <time>2018-01-23T09:19:45Z</time>
      </trkpt>
      <trkpt lat="48.59746" lon="1.97234">
        <ele>133.76</ele>
        <time>2018-01-23T09:20:00Z</time>
      </trkpt>
      <trkpt lat="48.59745" lon="1.97231">
        <ele>134.24</ele>
        <time>2018-01-23T09:20:02Z</time>
      </trkpt>
      <trkpt lat="48.59743" lon="1.97224">
        <ele>134.24</ele>
        <time>2018-01-23T09:20:06Z</time>
      </trkpt>
      <trkpt lat="48.5974" lon="1.97213">
        <ele>134.24</ele>
        <time>2018-01-23T09:20:13Z</time>
      </trkpt>
      <trkpt lat="48.5974" lon="1.97209">
        <ele>135.2</ele>
        <time>2018-01-23T09:20:15Z</time>
      </trkpt>
      <trkpt lat="48.59738" lon="1.97198">
        <ele>135.2</ele>
        <time>2018-01-23T09:20:20Z</time>
      </trkpt>
      <trkpt lat="48.59732" lon="1.97174">
        <ele>135.2</ele>
        <time>2018-01-23T09:20:30Z</time>
      </trkpt>
      <trkpt lat="48.59729" lon="1.97166">
        <ele>135.68</ele>
        <time>2018-01-23T09:20:35Z</time>
      </trkpt>
      <trkpt lat="48.59729" lon="1.97163">
        <ele>135.68</ele>
        <time>2018-01-23T09:20:37Z</time>
      </trkpt>
      <trkpt lat="48.59727" lon="1.97153">
        <ele>135.68</ele>
        <time>2018-01-23T09:20:43Z</time>
      </trkpt>
      <trkpt lat="48.59725" lon="1.97141">
        <ele>135.68</ele>
        <time>2018-01-23T09:20:49Z</time>
      </trkpt>
      <trkpt lat="48.59721" lon="1.97129">
        <ele>136.16</ele>
        <time>2018-01-23T09:20:55Z</time>
      </trkpt>
      <trkpt lat="48.59714" lon="1.97107">
        <ele>136.16</ele>
        <time>2018-01-23T09:21:05Z</time>
      </trkpt>
      <trkpt lat="48.59712" lon="1.971">
        <ele>136.64</ele>
        <time>2018-01-23T09:21:09Z</time>
      </trkpt>
      <trkpt lat="48.59707" lon="1.97084">
        <ele>136.16</ele>
        <time>2018-01-23T09:21:15Z</time>
      </trkpt>
      <trkpt lat="48.59702" lon="1.97077">
        <ele>136.16</ele>
        <time>2018-01-23T09:21:22Z</time>
      </trkpt>
      <trkpt lat="48.597" lon="1.97073">
        <ele>136.16</ele>
        <time>2018-01-23T09:21:24Z</time>
      </trkpt>
      <trkpt lat="48.59689" lon="1.97055">
        <ele>136.64</ele>
        <time>2018-01-23T09:21:34Z</time>
      </trkpt>
      <trkpt lat="48.59685" lon="1.9705">
        <ele>136.16</ele>
        <time>2018-01-23T09:21:37Z</time>
      </trkpt>
      <trkpt lat="48.59682" lon="1.97046">
        <ele>136.16</ele>
        <time>2018-01-23T09:21:40Z</time>
      </trkpt>
      <trkpt lat="48.59679" lon="1.97042">
        <ele>136.16</ele>
        <time>2018-01-23T09:21:43Z</time>
      </trkpt>
      <trkpt lat="48.59676" lon="1.97032">
        <ele>136.16</ele>
        <time>2018-01-23T09:21:49Z</time>
      </trkpt>
      <trkpt lat="48.59676" lon="1.97029">
        <ele>136.64</ele>
        <time>2018-01-23T09:21:51Z</time>
      </trkpt>
      <trkpt lat="48.59678" lon="1.97027">
        <ele>136.16</ele>
        <time>2018-01-23T09:21:53Z</time>
      </trkpt>
      <trkpt lat="48.59682" lon="1.97025">
        <ele>137.13</ele>
        <time>2018-01-23T09:21:57Z</time>
      </trkpt>
      <trkpt lat="48.59686" lon="1.97016">
        <ele>136.64</ele>
        <time>2018-01-23T09:22:02Z</time>
      </trkpt>
      <trkpt lat="48.59689" lon="1.97011">
        <ele>137.61</ele>
        <time>2018-01-23T09:22:06Z</time>
      </trkpt>
      <trkpt lat="48.5969" lon="1.97007">
        <ele>137.61</ele>
        <time>2018-01-23T09:22:08Z</time>
      </trkpt>
      <trkpt lat="48.59692" lon="1.97003">
        <ele>137.13</ele>
        <time>2018-01-23T09:22:10Z</time>
      </trkpt>
      <trkpt lat="48.597" lon="1.96995">
        <ele>138.57</ele>
        <time>2018-01-23T09:22:18Z</time>
      </trkpt>
      <trkpt lat="48.59703" lon="1.96985">
        <ele>139.05</ele>
        <time>2018-01-23T09:22:22Z</time>
      </trkpt>
      <trkpt lat="48.59708" lon="1.96961">
        <ele>140.01</ele>
        <time>2018-01-23T09:22:34Z</time>
      </trkpt>
      <trkpt lat="48.59708" lon="1.96959">
        <ele>139.53</ele>
        <time>2018-01-23T09:22:35Z</time>
      </trkpt>
      <trkpt lat="48.5971" lon="1.9695">
        <ele>140.97</ele>
        <time>2018-01-23T09:22:40Z</time>
      </trkpt>
      <trkpt lat="48.59711" lon="1.96942">
        <ele>141.45</ele>
        <time>2018-01-23T09:22:45Z</time>
      </trkpt>
      <trkpt lat="48.59712" lon="1.96938">
        <ele>141.93</ele>
        <time>2018-01-23T09:22:49Z</time>
      </trkpt>
      <trkpt lat="48.59721" lon="1.96923">
        <ele>143.37</ele>
        <time>2018-01-23T09:22:58Z</time>
      </trkpt>
      <trkpt lat="48.5973" lon="1.96909">
        <ele>144.34</ele>
        <time>2018-01-23T09:23:10Z</time>
      </trkpt>
      <trkpt lat="48.59733" lon="1.96905">
        <ele>144.34</ele>
        <time>2018-01-23T09:23:13Z</time>
      </trkpt>
      <trkpt lat="48.59737" lon="1.969">
        <ele>145.3</ele>
        <time>2018-01-23T09:23:16Z</time>
      </trkpt>
      <trkpt lat="48.59739" lon="1.96897">
        <ele>144.82</ele>
        <time>2018-01-23T09:23:18Z</time>
      </trkpt>
      <trkpt lat="48.59753" lon="1.96875">
        <ele>147.22</ele>
        <time>2018-01-23T09:23:30Z</time>
      </trkpt>
      <trkpt lat="48.59766" lon="1.9685">
        <ele>147.7</ele>
        <time>2018-01-23T09:23:43Z</time>
      </trkpt>
      <trkpt lat="48.59767" lon="1.96849">
        <ele>148.18</ele>
        <time>2018-01-23T09:23:44Z</time>
      </trkpt>
      <trkpt lat="48.59769" lon="1.96841">
        <ele>149.14</ele>
        <time>2018-01-23T09:23:48Z</time>
      </trkpt>
      <trkpt lat="48.59773" lon="1.9683">
        <ele>150.1</ele>
        <time>2018-01-23T09:23:55Z</time>
      </trkpt>
      <trkpt lat="48.59776" lon="1.96826">
        <ele>151.06</ele>
        <time>2018-01-23T09:23:58Z</time>
      </trkpt>
      <trkpt lat="48.59779" lon="1.96815">
        <ele>152.51</ele>
        <time>2018-01-23T09:24:05Z</time>
      </trkpt>
      <trkpt lat="48.59782" lon="1.96811">
        <ele>152.51</ele>
        <time>2018-01-23T09:24:09Z</time>
      </trkpt>
      <trkpt lat="48.59784" lon="1.96809">
        <ele>153.47</ele>
        <time>2018-01-23T09:24:11Z</time>
      </trkpt>
      <trkpt lat="48.59785" lon="1.96806">
        <ele>153.47</ele>
        <time>2018-01-23T09:24:13Z</time>
      </trkpt>
      <trkpt lat="48.59788" lon="1.96799">
        <ele>154.91</ele>
        <time>2018-01-23T09:24:16Z</time>
      </trkpt>
      <trkpt lat="48.59789" lon="1.96795">
        <ele>154.91</ele>
        <time>2018-01-23T09:24:18Z</time>
      </trkpt>
      <trkpt lat="48.59791" lon="1.96791">
        <ele>155.87</ele>
        <time>2018-01-23T09:24:21Z</time>
      </trkpt>
      <trkpt lat="48.59796" lon="1.96783">
        <ele>156.35</ele>
        <time>2018-01-23T09:24:25Z</time>
      </trkpt>
      <trkpt lat="48.59802" lon="1.96763">
        <ele>157.79</ele>
        <time>2018-01-23T09:24:36Z</time>
      </trkpt>
      <trkpt lat="48.59803" lon="1.96762">
        <ele>157.79</ele>
        <time>2018-01-23T09:24:37Z</time>
      </trkpt>
      <trkpt lat="48.59807" lon="1.96748">
        <ele>158.27</ele>
        <time>2018-01-23T09:24:45Z</time>
      </trkpt>
      <trkpt lat="48.59809" lon="1.96742">
        <ele>157.79</ele>
        <time>2018-01-23T09:24:49Z</time>
      </trkpt>
      <trkpt lat="48.59815" lon="1.96737">
        <ele>158.75</ele>
        <time>2018-01-23T09:24:53Z</time>
      </trkpt>
      <trkpt lat="48.59821" lon="1.96727">
        <ele>158.75</ele>
        <time>2018-01-23T09:24:58Z</time>
      </trkpt>
      <trkpt lat="48.59825" lon="1.96719">
        <ele>158.75</ele>
        <time>2018-01-23T09:25:02Z</time>
      </trkpt>
      <trkpt lat="48.59832" lon="1.96703">
        <ele>159.24</ele>
        <time>2018-01-23T09:25:12Z</time>
      </trkpt>
      <trkpt lat="48.5984" lon="1.96685">
        <ele>159.24</ele>
        <time>2018-01-23T09:25:22Z</time>
      </trkpt>
      <trkpt lat="48.5985" lon="1.96666">
        <ele>158.75</ele>
        <time>2018-01-23T09:25:33Z</time>
      </trkpt>
      <trkpt lat="48.59859" lon="1.96656">
        <ele>158.75</ele>
        <time>2018-01-23T09:25:40Z</time>
      </trkpt>
      <trkpt lat="48.59861" lon="1.96648">
        <ele>158.27</ele>
        <time>2018-01-23T09:25:44Z</time>
      </trkpt>
      <trkpt lat="48.59865" lon="1.9664">
        <ele>158.27</ele>
        <time>2018-01-23T09:25:49Z</time>
      </trkpt>
      <trkpt lat="48.5987" lon="1.96631">
        <ele>158.27</ele>
        <time>2018-01-23T09:25:54Z</time>
      </trkpt>
      <trkpt lat="48.59872" lon="1.96625">
        <ele>158.27</ele>
        <time>2018-01-23T09:25:58Z</time>
      </trkpt>
      <trkpt lat="48.59879" lon="1.96618">
        <ele>157.79</ele>
        <time>2018-01-23T09:26:03Z</time>
      </trkpt>
      <trkpt lat="48.59881" lon="1.96617">
        <ele>157.79</ele>
        <time>2018-01-23T09:26:04Z</time>
      </trkpt>
      <trkpt lat="48.59884" lon="1.96611">
        <ele>157.31</ele>
        <time>2018-01-23T09:26:07Z</time>
      </trkpt>
      <trkpt lat="48.59886" lon="1.96601">
        <ele>156.83</ele>
        <time>2018-01-23T09:26:12Z</time>
      </trkpt>
      <trkpt lat="48.5989" lon="1.9659">
        <ele>155.87</ele>
        <time>2018-01-23T09:26:19Z</time>
      </trkpt>
      <trkpt lat="48.59891" lon="1.96585">
        <ele>155.39</ele>
        <time>2018-01-23T09:26:22Z</time>
      </trkpt>
      <trkpt lat="48.59893" lon="1.96578">
        <ele>154.43</ele>
        <time>2018-01-23T09:26:27Z</time>
      </trkpt>
      <trkpt lat="48.59896" lon="1.96576">
        <ele>153.95</ele>
        <time>2018-01-23T09:26:29Z</time>
      </trkpt>
      <trkpt lat="48.59902" lon="1.96562">
        <ele>152.03</ele>
        <time>2018-01-23T09:26:38Z</time>
      </trkpt>
      <trkpt lat="48.59904" lon="1.96559">
        <ele>151.06</ele>
        <time>2018-01-23T09:26:40Z</time>
      </trkpt>
      <trkpt lat="48.59914" lon="1.96543">
        <ele>149.14</ele>
        <time>2018-01-23T09:26:51Z</time>
      </trkpt>
      <trkpt lat="48.59919" lon="1.96525">
        <ele>148.18</ele>
        <time>2018-01-23T09:27:01Z</time>
      </trkpt>
      <trkpt lat="48.59937" lon="1.96496">
        <ele>147.22</ele>
        <time>2018-01-23T09:27:16Z</time>
      </trkpt>
      <trkpt lat="48.5994" lon="1.96487">
        <ele>146.26</ele>
        <time>2018-01-23T09:27:21Z</time>
      </trkpt>
      <trkpt lat="48.59943" lon="1.96481">
        <ele>146.26</ele>
        <time>2018-01-23T09:27:24Z</time>
      </trkpt>
      <trkpt lat="48.5995" lon="1.96464">
        <ele>145.3</ele>
        <time>2018-01-23T09:27:33Z</time>
      </trkpt>
      <trkpt lat="48.59951" lon="1.96461">
        <ele>145.3</ele>
        <time>2018-01-23T09:27:35Z</time>
      </trkpt>
      <trkpt lat="48.59955" lon="1.9645">
        <ele>144.82</ele>
        <time>2018-01-23T09:27:42Z</time>
      </trkpt>
      <trkpt lat="48.59963" lon="1.9643">
        <ele>145.78</ele>
        <time>2018-01-23T09:27:55Z</time>
      </trkpt>
      <trkpt lat="48.59967" lon="1.96426">
        <ele>146.74</ele>
        <time>2018-01-23T09:27:58Z</time>
      </trkpt>
      <trkpt lat="48.59967" lon="1.96425">
        <ele>146.74</ele>
        <time>2018-01-23T09:27:59Z</time>
      </trkpt>
      <trkpt lat="48.59979" lon="1.96401">
        <ele>148.66</ele>
        <time>2018-01-23T09:28:11Z</time>
      </trkpt>
      <trkpt lat="48.59985" lon="1.96392">
        <ele>149.14</ele>
        <time>2018-01-23T09:28:16Z</time>
      </trkpt>
      <trkpt lat="48.59992" lon="1.96384">
        <ele>150.1</ele>
        <time>2018-01-23T09:28:21Z</time>
      </trkpt>
      <trkpt lat="48.59998" lon="1.96372">
        <ele>151.06</ele>
        <time>2018-01-23T09:28:28Z</time>
      </trkpt>
      <trkpt lat="48.60001" lon="1.96367">
        <ele>152.03</ele>
        <time>2018-01-23T09:28:31Z</time>
      </trkpt>
      <trkpt lat="48.60008" lon="1.96357">
        <ele>153.95</ele>
        <time>2018-01-23T09:28:38Z</time>
      </trkpt>
      <trkpt lat="48.60009" lon="1.9635">
        <ele>153.47</ele>
        <time>2018-01-23T09:28:42Z</time>
      </trkpt>
      <trkpt lat="48.60017" lon="1.96336">
        <ele>154.43</ele>
        <time>2018-01-23T09:28:50Z</time>
      </trkpt>
      <trkpt lat="48.60021" lon="1.96329">
        <ele>154.43</ele>
        <time>2018-01-23T09:28:55Z</time>
      </trkpt>
      <trkpt lat="48.60027" lon="1.9631">
        <ele>154.43</ele>
        <time>2018-01-23T09:29:07Z</time>
      </trkpt>
      <trkpt lat="48.60036" lon="1.96287">
        <ele>152.51</ele>
        <time>2018-01-23T09:29:18Z</time>
      </trkpt>
      <trkpt lat="48.60042" lon="1.96279">
        <ele>152.99</ele>
        <time>2018-01-23T09:29:23Z</time>
      </trkpt>
      <trkpt lat="48.60047" lon="1.9627">
        <ele>152.99</ele>
        <time>2018-01-23T09:29:27Z</time>
      </trkpt>
      <trkpt lat="48.60049" lon="1.96266">
        <ele>153.47</ele>
        <time>2018-01-23T09:29:31Z</time>
      </trkpt>
      <trkpt lat="48.60051" lon="1.9626">
        <ele>153.47</ele>
        <time>2018-01-23T09:29:34Z</time>
      </trkpt>
      <trkpt lat="48.60055" lon="1.96253">
        <ele>153.95</ele>
        <time>2018-01-23T09:29:38Z</time>
      </trkpt>
      <trkpt lat="48.60057" lon="1.96246">
        <ele>154.91</ele>
        <time>2018-01-23T09:29:43Z</time>
      </trkpt>
      <trkpt lat="48.60064" lon="1.96229">
        <ele>154.43</ele>
        <time>2018-01-23T09:29:54Z</time>
      </trkpt>
      <trkpt lat="48.60065" lon="1.96223">
        <ele>153.95</ele>
        <time>2018-01-23T09:29:59Z</time>
      </trkpt>
      <trkpt lat="48.60067" lon="1.96219">
        <ele>153.47</ele>
        <time>2018-01-23T09:30:02Z</time>
      </trkpt>
      <trkpt lat="48.6007" lon="1.96212">
        <ele>152.03</ele>
        <time>2018-01-23T09:30:08Z</time>
      </trkpt>
      <trkpt lat="48.60073" lon="1.96208">
        <ele>151.54</ele>
        <time>2018-01-23T09:30:11Z</time>
      </trkpt>
      <trkpt lat="48.60078" lon="1.96199">
        <ele>150.1</ele>
        <time>2018-01-23T09:30:17Z</time>
      </trkpt>
      <trkpt lat="48.60082" lon="1.96188">
        <ele>146.74</ele>
        <time>2018-01-23T09:30:29Z</time>
      </trkpt>
      <trkpt lat="48.60088" lon="1.96178">
        <ele>143.37</ele>
        <time>2018-01-23T09:30:39Z</time>
      </trkpt>
      <trkpt lat="48.60089" lon="1.96175">
        <ele>143.37</ele>
        <time>2018-01-23T09:30:41Z</time>
      </trkpt>
      <trkpt lat="48.60091" lon="1.96173">
        <ele>142.41</ele>
        <time>2018-01-23T09:30:43Z</time>
      </trkpt>
      <trkpt lat="48.60097" lon="1.96161">
        <ele>140.01</ele>
        <time>2018-01-23T09:30:51Z</time>
      </trkpt>
      <trkpt lat="48.60099" lon="1.96151">
        <ele>138.09</ele>
        <time>2018-01-23T09:30:58Z</time>
      </trkpt>
      <trkpt lat="48.60115" lon="1.96131">
        <ele>134.72</ele>
        <time>2018-01-23T09:31:12Z</time>
      </trkpt>
      <trkpt lat="48.60122" lon="1.96119">
        <ele>132.32</ele>
        <time>2018-01-23T09:31:24Z</time>
      </trkpt>
      <trkpt lat="48.60126" lon="1.96106">
        <ele>128.95</ele>
        <time>2018-01-23T09:31:35Z</time>
      </trkpt>
      <trkpt lat="48.6013" lon="1.96096">
        <ele>126.55</ele>
        <time>2018-01-23T09:31:44Z</time>
      </trkpt>
      <trkpt lat="48.6013" lon="1.96095">
        <ele>126.55</ele>
        <time>2018-01-23T09:31:45Z</time>
      </trkpt>
      <trkpt lat="48.60133" lon="1.9609">
        <ele>125.11</ele>
        <time>2018-01-23T09:31:48Z</time>
      </trkpt>
      <trkpt lat="48.60134" lon="1.96086">
        <ele>124.63</ele>
        <time>2018-01-23T09:31:50Z</time>
      </trkpt>
      <trkpt lat="48.60139" lon="1.96075">
        <ele>124.15</ele>
        <time>2018-01-23T09:31:57Z</time>
      </trkpt>
      <trkpt lat="48.60146" lon="1.9607">
        <ele>122.22</ele>
        <time>2018-01-23T09:32:11Z</time>
      </trkpt>
      <trkpt lat="48.60146" lon="1.9607">
        <ele>122.22</ele>
        <time>2018-01-23T09:32:30Z</time>
      </trkpt>
      <trkpt lat="48.60145" lon="1.96069">
        <ele>122.22</ele>
        <time>2018-01-23T09:32:48Z</time>
      </trkpt>
      <trkpt lat="48.60146" lon="1.96067">
        <ele>123.67</ele>
        <time>2018-01-23T09:33:09Z</time>
      </trkpt>
      <trkpt lat="48.60146" lon="1.96067">
        <ele>123.19</ele>
        <time>2018-01-23T09:33:21Z</time>
      </trkpt>
      <trkpt lat="48.60141" lon="1.96067">
        <ele>123.67</ele>
        <time>2018-01-23T09:33:41Z</time>
      </trkpt>
      <trkpt lat="48.60141" lon="1.96067">
        <ele>123.19</ele>
        <time>2018-01-23T09:33:52Z</time>
      </trkpt>
      <trkpt lat="48.60141" lon="1.96068">
        <ele>124.63</ele>
        <time>2018-01-23T09:33:58Z</time>
      </trkpt>
      <trkpt lat="48.60143" lon="1.96069">
        <ele>123.19</ele>
        <time>2018-01-23T09:34:11Z</time>
      </trkpt>
      <trkpt lat="48.60142" lon="1.96068">
        <ele>123.19</ele>
        <time>2018-01-23T09:34:34Z</time>
      </trkpt>
      <trkpt lat="48.60143" lon="1.96066">
        <ele>123.67</ele>
        <time>2018-01-23T09:35:01Z</time>
      </trkpt>
      <trkpt lat="48.60145" lon="1.96067">
        <ele>123.67</ele>
        <time>2018-01-23T09:35:17Z</time>
      </trkpt>
      <trkpt lat="48.60144" lon="1.96068">
        <ele>123.67</ele>
        <time>2018-01-23T09:35:31Z</time>
      </trkpt>
      <trkpt lat="48.60144" lon="1.96067">
        <ele>123.67</ele>
        <time>2018-01-23T09:35:49Z</time>
      </trkpt>
      <trkpt lat="48.60145" lon="1.96067">
        <ele>123.19</ele>
        <time>2018-01-23T09:36:04Z</time>
      </trkpt>
      <trkpt lat="48.60145" lon="1.96069">
        <ele>123.19</ele>
        <time>2018-01-23T09:36:18Z</time>
      </trkpt>
      <trkpt lat="48.60145" lon="1.96067">
        <ele>123.67</ele>
        <time>2018-01-23T09:36:44Z</time>
      </trkpt>
      <trkpt lat="48.60147" lon="1.96067">
        <ele>123.67</ele>
        <time>2018-01-23T09:37:12Z</time>
      </trkpt>
      <trkpt lat="48.60146" lon="1.96066">
        <ele>123.67</ele>
        <time>2018-01-23T09:37:35Z</time>
      </trkpt>
      <trkpt lat="48.60146" lon="1.96066">
        <ele>123.67</ele>
        <time>2018-01-23T09:37:50Z</time>
      </trkpt>
      <trkpt lat="48.60147" lon="1.96071">
        <ele>123.67</ele>
        <time>2018-01-23T09:38:00Z</time>
      </trkpt>
      <trkpt lat="48.60147" lon="1.96079">
        <ele>124.15</ele>
        <time>2018-01-23T09:38:10Z</time>
      </trkpt>
      <trkpt lat="48.60147" lon="1.96082">
        <ele>124.15</ele>
        <time>2018-01-23T09:38:12Z</time>
      </trkpt>
      <trkpt lat="48.60149" lon="1.9609">
        <ele>124.63</ele>
        <time>2018-01-23T09:38:15Z</time>
      </trkpt>
      <trkpt lat="48.60153" lon="1.96096">
        <ele>124.15</ele>
        <time>2018-01-23T09:38:19Z</time>
      </trkpt>
      <trkpt lat="48.60156" lon="1.9612">
        <ele>125.59</ele>
        <time>2018-01-23T09:38:31Z</time>
      </trkpt>
      <trkpt lat="48.60156" lon="1.96122">
        <ele>125.59</ele>
        <time>2018-01-23T09:38:32Z</time>
      </trkpt>
      <trkpt lat="48.60153" lon="1.96152">
        <ele>127.03</ele>
        <time>2018-01-23T09:38:45Z</time>
      </trkpt>
      <trkpt lat="48.60152" lon="1.96164">
        <ele>127.03</ele>
        <time>2018-01-23T09:38:50Z</time>
      </trkpt>
      <trkpt lat="48.6015" lon="1.96174">
        <ele>127.99</ele>
        <time>2018-01-23T09:38:56Z</time>
      </trkpt>
      <trkpt lat="48.60151" lon="1.96183">
        <ele>127.99</ele>
        <time>2018-01-23T09:39:01Z</time>
      </trkpt>
      <trkpt lat="48.6015" lon="1.9619">
        <ele>128.95</ele>
        <time>2018-01-23T09:39:04Z</time>
      </trkpt>
      <trkpt lat="48.60151" lon="1.96198">
        <ele>128.95</ele>
        <time>2018-01-23T09:39:07Z</time>
      </trkpt>
      <trkpt lat="48.6015" lon="1.96219">
        <ele>130.4</ele>
        <time>2018-01-23T09:39:18Z</time>
      </trkpt>
      <trkpt lat="48.60154" lon="1.96255">
        <ele>132.32</ele>
        <time>2018-01-23T09:39:32Z</time>
      </trkpt>
      <trkpt lat="48.60156" lon="1.96257">
        <ele>131.84</ele>
        <time>2018-01-23T09:39:33Z</time>
      </trkpt>
      <trkpt lat="48.60158" lon="1.96258">
        <ele>132.32</ele>
        <time>2018-01-23T09:39:36Z</time>
      </trkpt>
      <trkpt lat="48.6016" lon="1.9626">
        <ele>132.8</ele>
        <time>2018-01-23T09:39:38Z</time>
      </trkpt>
      <trkpt lat="48.60166" lon="1.9627">
        <ele>132.8</ele>
        <time>2018-01-23T09:39:44Z</time>
      </trkpt>
      <trkpt lat="48.60169" lon="1.9628">
        <ele>134.24</ele>
        <time>2018-01-23T09:39:48Z</time>
      </trkpt>
      <trkpt lat="48.60171" lon="1.96281">
        <ele>134.24</ele>
        <time>2018-01-23T09:39:50Z</time>
      </trkpt>
      <trkpt lat="48.60178" lon="1.9629">
        <ele>136.16</ele>
        <time>2018-01-23T09:39:58Z</time>
      </trkpt>
      <trkpt lat="48.6018" lon="1.96298">
        <ele>136.16</ele>
        <time>2018-01-23T09:40:01Z</time>
      </trkpt>
      <trkpt lat="48.60183" lon="1.96323">
        <ele>137.61</ele>
        <time>2018-01-23T09:40:11Z</time>
      </trkpt>
      <trkpt lat="48.60184" lon="1.96338">
        <ele>138.09</ele>
        <time>2018-01-23T09:40:19Z</time>
      </trkpt>
      <trkpt lat="48.60189" lon="1.96359">
        <ele>139.05</ele>
        <time>2018-01-23T09:40:28Z</time>
      </trkpt>
      <trkpt lat="48.60194" lon="1.96383">
        <ele>138.09</ele>
        <time>2018-01-23T09:40:38Z</time>
      </trkpt>
      <trkpt lat="48.60198" lon="1.96403">
        <ele>137.61</ele>
        <time>2018-01-23T09:40:50Z</time>
      </trkpt>
      <trkpt lat="48.60203" lon="1.96415">
        <ele>137.61</ele>
        <time>2018-01-23T09:40:58Z</time>
      </trkpt>
      <trkpt lat="48.60202" lon="1.96433">
        <ele>137.13</ele>
        <time>2018-01-23T09:41:03Z</time>
      </trkpt>
      <trkpt lat="48.60202" lon="1.96448">
        <ele>136.64</ele>
        <time>2018-01-23T09:41:07Z</time>
      </trkpt>
      <trkpt lat="48.60206" lon="1.96463">
        <ele>136.16</ele>
        <time>2018-01-23T09:41:16Z</time>
      </trkpt>
      <trkpt lat="48.60207" lon="1.96473">
        <ele>135.68</ele>
        <time>2018-01-23T09:41:20Z</time>
      </trkpt>
      <trkpt lat="48.60208" lon="1.96488">
        <ele>135.2</ele>
        <time>2018-01-23T09:41:26Z</time>
      </trkpt>
      <trkpt lat="48.60207" lon="1.96501">
        <ele>134.72</ele>
        <time>2018-01-23T09:41:30Z</time>
      </trkpt>
      <trkpt lat="48.60207" lon="1.96521">
        <ele>134.24</ele>
        <time>2018-01-23T09:41:40Z</time>
      </trkpt>
      <trkpt lat="48.60208" lon="1.96529">
        <ele>133.76</ele>
        <time>2018-01-23T09:41:44Z</time>
      </trkpt>
      <trkpt lat="48.60209" lon="1.96531">
        <ele>133.76</ele>
        <time>2018-01-23T09:41:46Z</time>
      </trkpt>
      <trkpt lat="48.6021" lon="1.96539">
        <ele>133.28</ele>
        <time>2018-01-23T09:41:49Z</time>
      </trkpt>
      <trkpt lat="48.60206" lon="1.96561">
        <ele>133.28</ele>
        <time>2018-01-23T09:41:55Z</time>
      </trkpt>
      <trkpt lat="48.6021" lon="1.96579">
        <ele>132.32</ele>
        <time>2018-01-23T09:42:05Z</time>
      </trkpt>
      <trkpt lat="48.60209" lon="1.96588">
        <ele>132.32</ele>
        <time>2018-01-23T09:42:09Z</time>
      </trkpt>
      <trkpt lat="48.6021" lon="1.96594">
        <ele>131.84</ele>
        <time>2018-01-23T09:42:12Z</time>
      </trkpt>
      <trkpt lat="48.60211" lon="1.96596">
        <ele>131.36</ele>
        <time>2018-01-23T09:42:15Z</time>
      </trkpt>
      <trkpt lat="48.60209" lon="1.96604">
        <ele>130.88</ele>
        <time>2018-01-23T09:42:19Z</time>
      </trkpt>
      <trkpt lat="48.60204" lon="1.96631">
        <ele>130.4</ele>
        <time>2018-01-23T09:42:29Z</time>
      </trkpt>
      <trkpt lat="48.60201" lon="1.96655">
        <ele>130.4</ele>
        <time>2018-01-23T09:42:39Z</time>
      </trkpt>
      <trkpt lat="48.60199" lon="1.96663">
        <ele>129.92</ele>
        <time>2018-01-23T09:42:42Z</time>
      </trkpt>
      <trkpt lat="48.60199" lon="1.9667">
        <ele>129.92</ele>
        <time>2018-01-23T09:42:45Z</time>
      </trkpt>
      <trkpt lat="48.60199" lon="1.96675">
        <ele>129.43</ele>
        <time>2018-01-23T09:42:47Z</time>
      </trkpt>
      <trkpt lat="48.60202" lon="1.96691">
        <ele>129.43</ele>
        <time>2018-01-23T09:42:53Z</time>
      </trkpt>
      <trkpt lat="48.60202" lon="1.96699">
        <ele>129.43</ele>
        <time>2018-01-23T09:42:56Z</time>
      </trkpt>
      <trkpt lat="48.60207" lon="1.96721">
        <ele>129.43</ele>
        <time>2018-01-23T09:43:05Z</time>
      </trkpt>
      <trkpt lat="48.60215" lon="1.96744">
        <ele>128.47</ele>
        <time>2018-01-23T09:43:20Z</time>
      </trkpt>
      <trkpt lat="48.60216" lon="1.96746">
        <ele>128.47</ele>
        <time>2018-01-23T09:43:21Z</time>
      </trkpt>
      <trkpt lat="48.6022" lon="1.96775">
        <ele>127.99</ele>
        <time>2018-01-23T09:43:33Z</time>
      </trkpt>
      <trkpt lat="48.60224" lon="1.96789">
        <ele>127.99</ele>
        <time>2018-01-23T09:43:39Z</time>
      </trkpt>
      <trkpt lat="48.60226" lon="1.96807">
        <ele>127.03</ele>
        <time>2018-01-23T09:43:45Z</time>
      </trkpt>
      <trkpt lat="48.60227" lon="1.96812">
        <ele>127.03</ele>
        <time>2018-01-23T09:43:47Z</time>
      </trkpt>
      <trkpt lat="48.60232" lon="1.96823">
        <ele>126.55</ele>
        <time>2018-01-23T09:43:54Z</time>
      </trkpt>
      <trkpt lat="48.60235" lon="1.9683">
        <ele>127.03</ele>
        <time>2018-01-23T09:43:59Z</time>
      </trkpt>
      <trkpt lat="48.60239" lon="1.96835">
        <ele>125.59</ele>
        <time>2018-01-23T09:44:03Z</time>
      </trkpt>
      <trkpt lat="48.60243" lon="1.96844">
        <ele>125.11</ele>
        <time>2018-01-23T09:44:08Z</time>
      </trkpt>
      <trkpt lat="48.60252" lon="1.96863">
        <ele>124.63</ele>
        <time>2018-01-23T09:44:19Z</time>
      </trkpt>
      <trkpt lat="48.60257" lon="1.96878">
        <ele>124.15</ele>
        <time>2018-01-23T09:44:26Z</time>
      </trkpt>
      <trkpt lat="48.60258" lon="1.96886">
        <ele>124.15</ele>
        <time>2018-01-23T09:44:29Z</time>
      </trkpt>
      <trkpt lat="48.60262" lon="1.96903">
        <ele>123.67</ele>
        <time>2018-01-23T09:44:39Z</time>
      </trkpt>
      <trkpt lat="48.60264" lon="1.96907">
        <ele>123.67</ele>
        <time>2018-01-23T09:44:41Z</time>
      </trkpt>
      <trkpt lat="48.60269" lon="1.96918">
        <ele>123.19</ele>
        <time>2018-01-23T09:44:47Z</time>
      </trkpt>
      <trkpt lat="48.60273" lon="1.96935">
        <ele>122.71</ele>
        <time>2018-01-23T09:44:53Z</time>
      </trkpt>
      <trkpt lat="48.60276" lon="1.96941">
        <ele>121.74</ele>
        <time>2018-01-23T09:44:57Z</time>
      </trkpt>
      <trkpt lat="48.60277" lon="1.96945">
        <ele>122.22</ele>
        <time>2018-01-23T09:44:59Z</time>
      </trkpt>
      <trkpt lat="48.60281" lon="1.96958">
        <ele>121.26</ele>
        <time>2018-01-23T09:45:04Z</time>
      </trkpt>
      <trkpt lat="48.60288" lon="1.96984">
        <ele>121.26</ele>
        <time>2018-01-23T09:45:15Z</time>
      </trkpt>
      <trkpt lat="48.60289" lon="1.96986">
        <ele>120.78</ele>
        <time>2018-01-23T09:45:17Z</time>
      </trkpt>
      <trkpt lat="48.60291" lon="1.96993">
        <ele>120.3</ele>
        <time>2018-01-23T09:45:21Z</time>
      </trkpt>
      <trkpt lat="48.60293" lon="1.97">
        <ele>120.3</ele>
        <time>2018-01-23T09:45:24Z</time>
      </trkpt>
      <trkpt lat="48.603" lon="1.97016">
        <ele>120.3</ele>
        <time>2018-01-23T09:45:33Z</time>
      </trkpt>
      <trkpt lat="48.60307" lon="1.97048">
        <ele>119.82</ele>
        <time>2018-01-23T09:45:48Z</time>
      </trkpt>
      <trkpt lat="48.60311" lon="1.97059">
        <ele>119.34</ele>
        <time>2018-01-23T09:45:53Z</time>
      </trkpt>
      <trkpt lat="48.60314" lon="1.97069">
        <ele>119.34</ele>
        <time>2018-01-23T09:45:58Z</time>
      </trkpt>
      <trkpt lat="48.60317" lon="1.97074">
        <ele>118.86</ele>
        <time>2018-01-23T09:46:02Z</time>
      </trkpt>
      <trkpt lat="48.60325" lon="1.97085">
        <ele>118.86</ele>
        <time>2018-01-23T09:46:11Z</time>
      </trkpt>
      <trkpt lat="48.60336" lon="1.97112">
        <ele>118.38</ele>
        <time>2018-01-23T09:46:24Z</time>
      </trkpt>
      <trkpt lat="48.60341" lon="1.97121">
        <ele>118.38</ele>
        <time>2018-01-23T09:46:30Z</time>
      </trkpt>
      <trkpt lat="48.60347" lon="1.97131">
        <ele>118.38</ele>
        <time>2018-01-23T09:46:36Z</time>
      </trkpt>
      <trkpt lat="48.60353" lon="1.97139">
        <ele>118.86</ele>
        <time>2018-01-23T09:46:42Z</time>
      </trkpt>
      <trkpt lat="48.60361" lon="1.97145">
        <ele>118.38</ele>
        <time>2018-01-23T09:46:48Z</time>
      </trkpt>
      <trkpt lat="48.6037" lon="1.97156">
        <ele>118.86</ele>
        <time>2018-01-23T09:46:57Z</time>
      </trkpt>
      <trkpt lat="48.60373" lon="1.97159">
        <ele>118.38</ele>
        <time>2018-01-23T09:47:00Z</time>
      </trkpt>
      <trkpt lat="48.60377" lon="1.97163">
        <ele>117.9</ele>
        <time>2018-01-23T09:47:03Z</time>
      </trkpt>
      <trkpt lat="48.60385" lon="1.9718">
        <ele>117.9</ele>
        <time>2018-01-23T09:47:15Z</time>
      </trkpt>
      <trkpt lat="48.60386" lon="1.97181">
        <ele>117.9</ele>
        <time>2018-01-23T09:47:16Z</time>
      </trkpt>
      <trkpt lat="48.6039" lon="1.97184">
        <ele>117.9</ele>
        <time>2018-01-23T09:47:21Z</time>
      </trkpt>
      <trkpt lat="48.60395" lon="1.9719">
        <ele>117.42</ele>
        <time>2018-01-23T09:47:25Z</time>
      </trkpt>
      <trkpt lat="48.60399" lon="1.97194">
        <ele>117.9</ele>
        <time>2018-01-23T09:47:28Z</time>
      </trkpt>
      <trkpt lat="48.60407" lon="1.97207">
        <ele>117.42</ele>
        <time>2018-01-23T09:47:37Z</time>
      </trkpt>
      <trkpt lat="48.60413" lon="1.97213">
        <ele>116.46</ele>
        <time>2018-01-23T09:47:41Z</time>
      </trkpt>
      <trkpt lat="48.60414" lon="1.97217">
        <ele>116.46</ele>
        <time>2018-01-23T09:47:43Z</time>
      </trkpt>
      <trkpt lat="48.60421" lon="1.97222">
        <ele>116.46</ele>
        <time>2018-01-23T09:47:47Z</time>
      </trkpt>
      <trkpt lat="48.60426" lon="1.97237">
        <ele>116.46</ele>
        <time>2018-01-23T09:47:53Z</time>
      </trkpt>
      <trkpt lat="48.6044" lon="1.97251">
        <ele>115.5</ele>
        <time>2018-01-23T09:48:05Z</time>
      </trkpt>
      <trkpt lat="48.60444" lon="1.97255">
        <ele>115.5</ele>
        <time>2018-01-23T09:48:08Z</time>
      </trkpt>
      <trkpt lat="48.60448" lon="1.97261">
        <ele>115.5</ele>
        <time>2018-01-23T09:48:12Z</time>
      </trkpt>
      <trkpt lat="48.6046" lon="1.97265">
        <ele>115.01</ele>
        <time>2018-01-23T09:48:22Z</time>
      </trkpt>
      <trkpt lat="48.6047" lon="1.97265">
        <ele>114.53</ele>
        <time>2018-01-23T09:48:28Z</time>
      </trkpt>
      <trkpt lat="48.60473" lon="1.9727">
        <ele>115.01</ele>
        <time>2018-01-23T09:48:31Z</time>
      </trkpt>
      <trkpt lat="48.60478" lon="1.97273">
        <ele>114.53</ele>
        <time>2018-01-23T09:48:34Z</time>
      </trkpt>
      <trkpt lat="48.60483" lon="1.97277">
        <ele>114.53</ele>
        <time>2018-01-23T09:48:38Z</time>
      </trkpt>
      <trkpt lat="48.60502" lon="1.97284">
        <ele>113.57</ele>
        <time>2018-01-23T09:48:52Z</time>
      </trkpt>
      <trkpt lat="48.60503" lon="1.97286">
        <ele>113.09</ele>
        <time>2018-01-23T09:48:54Z</time>
      </trkpt>
      <trkpt lat="48.60506" lon="1.97293">
        <ele>113.09</ele>
        <time>2018-01-23T09:48:57Z</time>
      </trkpt>
      <trkpt lat="48.60521" lon="1.97299">
        <ele>112.61</ele>
        <time>2018-01-23T09:49:08Z</time>
      </trkpt>
      <trkpt lat="48.60534" lon="1.97306">
        <ele>111.65</ele>
        <time>2018-01-23T09:49:17Z</time>
      </trkpt>
      <trkpt lat="48.60544" lon="1.97311">
        <ele>111.65</ele>
        <time>2018-01-23T09:49:28Z</time>
      </trkpt>
      <trkpt lat="48.60555" lon="1.97318">
        <ele>110.69</ele>
        <time>2018-01-23T09:49:37Z</time>
      </trkpt>
      <trkpt lat="48.60565" lon="1.97329">
        <ele>110.69</ele>
        <time>2018-01-23T09:49:44Z</time>
      </trkpt>
      <trkpt lat="48.6057" lon="1.97332">
        <ele>110.69</ele>
        <time>2018-01-23T09:49:48Z</time>
      </trkpt>
      <trkpt lat="48.60576" lon="1.9733">
        <ele>110.21</ele>
        <time>2018-01-23T09:49:54Z</time>
      </trkpt>
      <trkpt lat="48.60581" lon="1.97342">
        <ele>109.73</ele>
        <time>2018-01-23T09:50:00Z</time>
      </trkpt>
      <trkpt lat="48.60589" lon="1.97353">
        <ele>109.73</ele>
        <time>2018-01-23T09:50:11Z</time>
      </trkpt>
      <trkpt lat="48.60595" lon="1.97366">
        <ele>109.25</ele>
        <time>2018-01-23T09:50:25Z</time>
      </trkpt>
      <trkpt lat="48.60596" lon="1.97369">
        <ele>109.25</ele>
        <time>2018-01-23T09:50:27Z</time>
      </trkpt>
      <trkpt lat="48.60604" lon="1.97377">
        <ele>108.77</ele>
        <time>2018-01-23T09:50:37Z</time>
      </trkpt>
      <trkpt lat="48.60608" lon="1.97381">
        <ele>109.25</ele>
        <time>2018-01-23T09:50:41Z</time>
      </trkpt>
      <trkpt lat="48.60616" lon="1.97398">
        <ele>108.29</ele>
        <time>2018-01-23T09:50:49Z</time>
      </trkpt>
      <trkpt lat="48.60622" lon="1.97408">
        <ele>107.81</ele>
        <time>2018-01-23T09:50:54Z</time>
      </trkpt>
      <trkpt lat="48.60626" lon="1.97416">
        <ele>107.81</ele>
        <time>2018-01-23T09:51:00Z</time>
      </trkpt>
      <trkpt lat="48.60631" lon="1.97424">
        <ele>107.32</ele>
        <time>2018-01-23T09:51:04Z</time>
      </trkpt>
      <trkpt lat="48.60636" lon="1.9743">
        <ele>106.84</ele>
        <time>2018-01-23T09:51:08Z</time>
      </trkpt>
      <trkpt lat="48.60645" lon="1.97443">
        <ele>106.84</ele>
        <time>2018-01-23T09:51:18Z</time>
      </trkpt>
      <trkpt lat="48.60648" lon="1.97445">
        <ele>106.84</ele>
        <time>2018-01-23T09:51:20Z</time>
      </trkpt>
      <trkpt lat="48.60663" lon="1.97459">
        <ele>106.84</ele>
        <time>2018-01-23T09:51:31Z</time>
      </trkpt>
      <trkpt lat="48.60674" lon="1.97473">
        <ele>105.88</ele>
        <time>2018-01-23T09:51:42Z</time>
      </trkpt>
      <trkpt lat="48.6068" lon="1.97475">
        <ele>105.88</ele>
        <time>2018-01-23T09:51:46Z</time>
      </trkpt>
      <trkpt lat="48.60685" lon="1.9748">
        <ele>105.4</ele>
        <time>2018-01-23T09:51:51Z</time>
      </trkpt>
      <trkpt lat="48.60693" lon="1.97486">
        <ele>105.4</ele>
        <time>2018-01-23T09:51:56Z</time>
      </trkpt>
      <trkpt lat="48.60706" lon="1.97479">
        <ele>104.92</ele>
        <time>2018-01-23T09:52:08Z</time>
      </trkpt>
      <trkpt lat="48.60724" lon="1.97472">
        <ele>104.44</ele>
        <time>2018-01-23T09:52:18Z</time>
      </trkpt>
      <trkpt lat="48.60741" lon="1.97464">
        <ele>103.96</ele>
        <time>2018-01-23T09:52:25Z</time>
      </trkpt>
      <trkpt lat="48.60745" lon="1.97464">
        <ele>104.44</ele>
        <time>2018-01-23T09:52:27Z</time>
      </trkpt>
      <trkpt lat="48.60761" lon="1.97453">
        <ele>103.48</ele>
        <time>2018-01-23T09:52:40Z</time>
      </trkpt>
      <trkpt lat="48.60769" lon="1.9745">
        <ele>103.48</ele>
        <time>2018-01-23T09:52:47Z</time>
      </trkpt>
      <trkpt lat="48.6078" lon="1.97449">
        <ele>103</ele>
        <time>2018-01-23T09:52:58Z</time>
      </trkpt>
      <trkpt lat="48.60785" lon="1.97449">
        <ele>102.52</ele>
        <time>2018-01-23T09:53:15Z</time>
      </trkpt>
      <trkpt lat="48.60786" lon="1.97444">
        <ele>103</ele>
        <time>2018-01-23T09:53:32Z</time>
      </trkpt>
      <trkpt lat="48.60785" lon="1.97442">
        <ele>103</ele>
        <time>2018-01-23T09:53:54Z</time>
      </trkpt>
      <trkpt lat="48.60785" lon="1.97441">
        <ele>103</ele>
        <time>2018-01-23T09:54:13Z</time>
      </trkpt>
      <trkpt lat="48.60786" lon="1.97441">
        <ele>103</ele>
        <time>2018-01-23T09:54:35Z</time>
      </trkpt>
      <trkpt lat="48.60785" lon="1.9744">
        <ele>103</ele>
        <time>2018-01-23T09:55:00Z</time>
      </trkpt>
      <trkpt lat="48.60785" lon="1.97438">
        <ele>103</ele>
        <time>2018-01-23T09:55:21Z</time>
      </trkpt>
      <trkpt lat="48.60786" lon="1.97437">
        <ele>103</ele>
        <time>2018-01-23T09:55:41Z</time>
      </trkpt>
      <trkpt lat="48.60791" lon="1.97423">
        <ele>103.48</ele>
        <time>2018-01-23T09:55:52Z</time>
      </trkpt>
      <trkpt lat="48.6079" lon="1.97404">
        <ele>103</ele>
        <time>2018-01-23T09:56:03Z</time>
      </trkpt>
      <trkpt lat="48.6079" lon="1.97391">
        <ele>103.48</ele>
        <time>2018-01-23T09:56:10Z</time>
      </trkpt>
      <trkpt lat="48.60792" lon="1.97377">
        <ele>103.96</ele>
        <time>2018-01-23T09:56:16Z</time>
      </trkpt>
      <trkpt lat="48.60793" lon="1.97363">
        <ele>103.48</ele>
        <time>2018-01-23T09:56:23Z</time>
      </trkpt>
      <trkpt lat="48.60792" lon="1.97332">
        <ele>103.48</ele>
        <time>2018-01-23T09:56:39Z</time>
      </trkpt>
      <trkpt lat="48.60797" lon="1.97309">
        <ele>103</ele>
        <time>2018-01-23T09:56:51Z</time>
      </trkpt>
      <trkpt lat="48.608" lon="1.97276">
        <ele>103</ele>
        <time>2018-01-23T09:57:04Z</time>
      </trkpt>
      <trkpt lat="48.60801" lon="1.97272">
        <ele>103</ele>
        <time>2018-01-23T09:57:06Z</time>
      </trkpt>
      <trkpt lat="48.60805" lon="1.97245">
        <ele>103.48</ele>
        <time>2018-01-23T09:57:18Z</time>
      </trkpt>
      <trkpt lat="48.60806" lon="1.97226">
        <ele>103.48</ele>
        <time>2018-01-23T09:57:29Z</time>
      </trkpt>
      <trkpt lat="48.60806" lon="1.97222">
        <ele>102.52</ele>
        <time>2018-01-23T09:57:31Z</time>
      </trkpt>
      <trkpt lat="48.60809" lon="1.97197">
        <ele>103.48</ele>
        <time>2018-01-23T09:57:45Z</time>
      </trkpt>
      <trkpt lat="48.60805" lon="1.9719">
        <ele>103.96</ele>
        <time>2018-01-23T09:57:58Z</time>
      </trkpt>
      <trkpt lat="48.60805" lon="1.97185">
        <ele>103.48</ele>
        <time>2018-01-23T09:58:01Z</time>
      </trkpt>
      <trkpt lat="48.60808" lon="1.97166">
        <ele>103.48</ele>
        <time>2018-01-23T09:58:10Z</time>
      </trkpt>
      <trkpt lat="48.60811" lon="1.97145">
        <ele>103.96</ele>
        <time>2018-01-23T09:58:20Z</time>
      </trkpt>
      <trkpt lat="48.60814" lon="1.97129">
        <ele>103.96</ele>
        <time>2018-01-23T09:58:28Z</time>
      </trkpt>
      <trkpt lat="48.60813" lon="1.97124">
        <ele>103.96</ele>
        <time>2018-01-23T09:58:30Z</time>
      </trkpt>
      <trkpt lat="48.60814" lon="1.97111">
        <ele>103.96</ele>
        <time>2018-01-23T09:58:43Z</time>
      </trkpt>
      <trkpt lat="48.60815" lon="1.97104">
        <ele>104.44</ele>
        <time>2018-01-23T09:58:47Z</time>
      </trkpt>
      <trkpt lat="48.60823" lon="1.97089">
        <ele>104.44</ele>
        <time>2018-01-23T09:58:59Z</time>
      </trkpt>
      <trkpt lat="48.60832" lon="1.9707">
        <ele>103.48</ele>
        <time>2018-01-23T09:59:11Z</time>
      </trkpt>
      <trkpt lat="48.60838" lon="1.97061">
        <ele>103.96</ele>
        <time>2018-01-23T09:59:18Z</time>
      </trkpt>
      <trkpt lat="48.60845" lon="1.97041">
        <ele>104.44</ele>
        <time>2018-01-23T09:59:30Z</time>
      </trkpt>
      <trkpt lat="48.60855" lon="1.97016">
        <ele>103.96</ele>
        <time>2018-01-23T09:59:44Z</time>
      </trkpt>
      <trkpt lat="48.60857" lon="1.97008">
        <ele>104.44</ele>
        <time>2018-01-23T09:59:49Z</time>
      </trkpt>
      <trkpt lat="48.60857" lon="1.96999">
        <ele>104.44</ele>
        <time>2018-01-23T09:59:53Z</time>
      </trkpt>
      <trkpt lat="48.60863" lon="1.96968">
        <ele>104.44</ele>
        <time>2018-01-23T10:00:08Z</time>
      </trkpt>
      <trkpt lat="48.60865" lon="1.96961">
        <ele>104.44</ele>
        <time>2018-01-23T10:00:12Z</time>
      </trkpt>
      <trkpt lat="48.60868" lon="1.96956">
        <ele>103.96</ele>
        <time>2018-01-23T10:00:24Z</time>
      </trkpt>
      <trkpt lat="48.60869" lon="1.96949">
        <ele>104.44</ele>
        <time>2018-01-23T10:00:36Z</time>
      </trkpt>
      <trkpt lat="48.60865" lon="1.96938">
        <ele>104.92</ele>
        <time>2018-01-23T10:00:49Z</time>
      </trkpt>
      <trkpt lat="48.60865" lon="1.96936">
        <ele>104.44</ele>
        <time>2018-01-23T10:01:08Z</time>
      </trkpt>
      <trkpt lat="48.60861" lon="1.96933">
        <ele>104.92</ele>
        <time>2018-01-23T10:01:13Z</time>
      </trkpt>
      <trkpt lat="48.60847" lon="1.96919">
        <ele>105.4</ele>
        <time>2018-01-23T10:01:26Z</time>
      </trkpt>
      <trkpt lat="48.60836" lon="1.96905">
        <ele>105.4</ele>
        <time>2018-01-23T10:01:34Z</time>
      </trkpt>
      <trkpt lat="48.60828" lon="1.96898">
        <ele>105.88</ele>
        <time>2018-01-23T10:01:40Z</time>
      </trkpt>
      <trkpt lat="48.60821" lon="1.96888">
        <ele>106.36</ele>
        <time>2018-01-23T10:01:46Z</time>
      </trkpt>
      <trkpt lat="48.6081" lon="1.96876">
        <ele>106.36</ele>
        <time>2018-01-23T10:01:58Z</time>
      </trkpt>
      <trkpt lat="48.60805" lon="1.96873">
        <ele>106.84</ele>
        <time>2018-01-23T10:02:04Z</time>
      </trkpt>
      <trkpt lat="48.60791" lon="1.9686">
        <ele>108.29</ele>
        <time>2018-01-23T10:02:14Z</time>
      </trkpt>
      <trkpt lat="48.60787" lon="1.96854">
        <ele>108.77</ele>
        <time>2018-01-23T10:02:20Z</time>
      </trkpt>
      <trkpt lat="48.60783" lon="1.96851">
        <ele>108.29</ele>
        <time>2018-01-23T10:02:23Z</time>
      </trkpt>
      <trkpt lat="48.60776" lon="1.96843">
        <ele>108.77</ele>
        <time>2018-01-23T10:02:30Z</time>
      </trkpt>
      <trkpt lat="48.60767" lon="1.96835">
        <ele>109.25</ele>
        <time>2018-01-23T10:02:37Z</time>
      </trkpt>
      <trkpt lat="48.6076" lon="1.96829">
        <ele>110.21</ele>
        <time>2018-01-23T10:02:43Z</time>
      </trkpt>
      <trkpt lat="48.60757" lon="1.96826">
        <ele>109.73</ele>
        <time>2018-01-23T10:02:45Z</time>
      </trkpt>
      <trkpt lat="48.60743" lon="1.9681">
        <ele>111.17</ele>
        <time>2018-01-23T10:02:59Z</time>
      </trkpt>
      <trkpt lat="48.6074" lon="1.96805">
        <ele>111.17</ele>
        <time>2018-01-23T10:03:02Z</time>
      </trkpt>
      <trkpt lat="48.60733" lon="1.96799">
        <ele>111.65</ele>
        <time>2018-01-23T10:03:07Z</time>
      </trkpt>
      <trkpt lat="48.60727" lon="1.96795">
        <ele>111.65</ele>
        <time>2018-01-23T10:03:11Z</time>
      </trkpt>
      <trkpt lat="48.60721" lon="1.9679">
        <ele>111.65</ele>
        <time>2018-01-23T10:03:16Z</time>
      </trkpt>
      <trkpt lat="48.60717" lon="1.96786">
        <ele>111.65</ele>
        <time>2018-01-23T10:03:19Z</time>
      </trkpt>
      <trkpt lat="48.60704" lon="1.96773">
        <ele>112.61</ele>
        <time>2018-01-23T10:03:30Z</time>
      </trkpt>
      <trkpt lat="48.60695" lon="1.96763">
        <ele>113.57</ele>
        <time>2018-01-23T10:03:40Z</time>
      </trkpt>
      <trkpt lat="48.60681" lon="1.9675">
        <ele>114.53</ele>
        <time>2018-01-23T10:03:52Z</time>
      </trkpt>
      <trkpt lat="48.60673" lon="1.96741">
        <ele>115.01</ele>
        <time>2018-01-23T10:03:59Z</time>
      </trkpt>
      <trkpt lat="48.60669" lon="1.96738">
        <ele>115.5</ele>
        <time>2018-01-23T10:04:03Z</time>
      </trkpt>
      <trkpt lat="48.60661" lon="1.96727">
        <ele>115.98</ele>
        <time>2018-01-23T10:04:09Z</time>
      </trkpt>
      <trkpt lat="48.60656" lon="1.96721">
        <ele>116.46</ele>
        <time>2018-01-23T10:04:16Z</time>
      </trkpt>
      <trkpt lat="48.60646" lon="1.96712">
        <ele>116.46</ele>
        <time>2018-01-23T10:04:24Z</time>
      </trkpt>
      <trkpt lat="48.60641" lon="1.96707">
        <ele>117.42</ele>
        <time>2018-01-23T10:04:34Z</time>
      </trkpt>
      <trkpt lat="48.60638" lon="1.96705">
        <ele>117.42</ele>
        <time>2018-01-23T10:04:36Z</time>
      </trkpt>
      <trkpt lat="48.60623" lon="1.96689">
        <ele>117.9</ele>
        <time>2018-01-23T10:04:49Z</time>
      </trkpt>
      <trkpt lat="48.60616" lon="1.96678">
        <ele>118.86</ele>
        <time>2018-01-23T10:04:56Z</time>
      </trkpt>
      <trkpt lat="48.606" lon="1.96668">
        <ele>119.82</ele>
        <time>2018-01-23T10:05:08Z</time>
      </trkpt>
      <trkpt lat="48.60596" lon="1.96662">
        <ele>120.78</ele>
        <time>2018-01-23T10:05:12Z</time>
      </trkpt>
      <trkpt lat="48.60594" lon="1.96659">
        <ele>120.3</ele>
        <time>2018-01-23T10:05:14Z</time>
      </trkpt>
      <trkpt lat="48.60578" lon="1.96641">
        <ele>122.71</ele>
        <time>2018-01-23T10:05:28Z</time>
      </trkpt>
      <trkpt lat="48.60575" lon="1.96639">
        <ele>122.71</ele>
        <time>2018-01-23T10:05:30Z</time>
      </trkpt>
      <trkpt lat="48.60562" lon="1.96629">
        <ele>125.11</ele>
        <time>2018-01-23T10:05:44Z</time>
      </trkpt>
      <trkpt lat="48.60562" lon="1.96628">
        <ele>125.11</ele>
        <time>2018-01-23T10:05:45Z</time>
      </trkpt>
      <trkpt lat="48.60547" lon="1.96616">
        <ele>127.51</ele>
        <time>2018-01-23T10:05:59Z</time>
      </trkpt>
      <trkpt lat="48.60537" lon="1.966">
        <ele>130.4</ele>
        <time>2018-01-23T10:06:12Z</time>
      </trkpt>
      <trkpt lat="48.60535" lon="1.96598">
        <ele>131.84</ele>
        <time>2018-01-23T10:06:14Z</time>
      </trkpt>
      <trkpt lat="48.60525" lon="1.96587">
        <ele>133.28</ele>
        <time>2018-01-23T10:06:22Z</time>
      </trkpt>
      <trkpt lat="48.60519" lon="1.96579">
        <ele>134.72</ele>
        <time>2018-01-23T10:06:28Z</time>
      </trkpt>
      <trkpt lat="48.60506" lon="1.96569">
        <ele>136.16</ele>
        <time>2018-01-23T10:06:41Z</time>
      </trkpt>
      <trkpt lat="48.60499" lon="1.96571">
        <ele>136.16</ele>
        <time>2018-01-23T10:06:54Z</time>
      </trkpt>
      <trkpt lat="48.60499" lon="1.96571">
        <ele>136.16</ele>
        <time>2018-01-23T10:07:08Z</time>
      </trkpt>
      <trkpt lat="48.60501" lon="1.96574">
        <ele>136.16</ele>
        <time>2018-01-23T10:07:27Z</time>
      </trkpt>
      <trkpt lat="48.60501" lon="1.96575">
        <ele>136.64</ele>
        <time>2018-01-23T10:07:43Z</time>
      </trkpt>
      <trkpt lat="48.60486" lon="1.96554">
        <ele>139.05</ele>
        <time>2018-01-23T10:07:55Z</time>
      </trkpt>
      <trkpt lat="48.60472" lon="1.9654">
        <ele>140.49</ele>
        <time>2018-01-23T10:08:06Z</time>
      </trkpt>
      <trkpt lat="48.60455" lon="1.96522">
        <ele>140.97</ele>
        <time>2018-01-23T10:08:18Z</time>
      </trkpt>
      <trkpt lat="48.60443" lon="1.96507">
        <ele>141.45</ele>
        <time>2018-01-23T10:08:29Z</time>
      </trkpt>
      <trkpt lat="48.60427" lon="1.96492">
        <ele>141.93</ele>
        <time>2018-01-23T10:08:40Z</time>
      </trkpt>
      <trkpt lat="48.60424" lon="1.9649">
        <ele>142.41</ele>
        <time>2018-01-23T10:08:43Z</time>
      </trkpt>
      <trkpt lat="48.60412" lon="1.96478">
        <ele>142.41</ele>
        <time>2018-01-23T10:08:54Z</time>
      </trkpt>
      <trkpt lat="48.60407" lon="1.96474">
        <ele>142.89</ele>
        <time>2018-01-23T10:08:58Z</time>
      </trkpt>
      <trkpt lat="48.60401" lon="1.96469">
        <ele>142.89</ele>
        <time>2018-01-23T10:09:03Z</time>
      </trkpt>
      <trkpt lat="48.60378" lon="1.96449">
        <ele>143.37</ele>
        <time>2018-01-23T10:09:17Z</time>
      </trkpt>
      <trkpt lat="48.60362" lon="1.96433">
        <ele>143.37</ele>
        <time>2018-01-23T10:09:29Z</time>
      </trkpt>
      <trkpt lat="48.60351" lon="1.96418">
        <ele>142.89</ele>
        <time>2018-01-23T10:09:38Z</time>
      </trkpt>
      <trkpt lat="48.60341" lon="1.9641">
        <ele>141.93</ele>
        <time>2018-01-23T10:09:46Z</time>
      </trkpt>
      <trkpt lat="48.60336" lon="1.96406">
        <ele>141.93</ele>
        <time>2018-01-23T10:09:50Z</time>
      </trkpt>
      <trkpt lat="48.60333" lon="1.96402">
        <ele>141.93</ele>
        <time>2018-01-23T10:09:52Z</time>
      </trkpt>
      <trkpt lat="48.60316" lon="1.96388">
        <ele>140.97</ele>
        <time>2018-01-23T10:10:03Z</time>
      </trkpt>
      <trkpt lat="48.60308" lon="1.96377">
        <ele>139.05</ele>
        <time>2018-01-23T10:10:12Z</time>
      </trkpt>
      <trkpt lat="48.60291" lon="1.96363">
        <ele>137.61</ele>
        <time>2018-01-23T10:10:25Z</time>
      </trkpt>
      <trkpt lat="48.60277" lon="1.96351">
        <ele>137.13</ele>
        <time>2018-01-23T10:10:37Z</time>
      </trkpt>
      <trkpt lat="48.6027" lon="1.96339">
        <ele>137.13</ele>
        <time>2018-01-23T10:10:46Z</time>
      </trkpt>
      <trkpt lat="48.60267" lon="1.96336">
        <ele>137.13</ele>
        <time>2018-01-23T10:10:49Z</time>
      </trkpt>
      <trkpt lat="48.60253" lon="1.96323">
        <ele>138.09</ele>
        <time>2018-01-23T10:11:01Z</time>
      </trkpt>
      <trkpt lat="48.6025" lon="1.96321">
        <ele>138.57</ele>
        <time>2018-01-23T10:11:04Z</time>
      </trkpt>
      <trkpt lat="48.60235" lon="1.96309">
        <ele>139.05</ele>
        <time>2018-01-23T10:11:16Z</time>
      </trkpt>
      <trkpt lat="48.60232" lon="1.96307">
        <ele>139.05</ele>
        <time>2018-01-23T10:11:19Z</time>
      </trkpt>
      <trkpt lat="48.60223" lon="1.96298">
        <ele>138.57</ele>
        <time>2018-01-23T10:11:27Z</time>
      </trkpt>
      <trkpt lat="48.6022" lon="1.96294">
        <ele>138.57</ele>
        <time>2018-01-23T10:11:30Z</time>
      </trkpt>
      <trkpt lat="48.60217" lon="1.96292">
        <ele>138.09</ele>
        <time>2018-01-23T10:11:32Z</time>
      </trkpt>
      <trkpt lat="48.60204" lon="1.96278">
        <ele>136.64</ele>
        <time>2018-01-23T10:11:42Z</time>
      </trkpt>
      <trkpt lat="48.60196" lon="1.96268">
        <ele>135.2</ele>
        <time>2018-01-23T10:11:50Z</time>
      </trkpt>
      <trkpt lat="48.60185" lon="1.96255">
        <ele>134.72</ele>
        <time>2018-01-23T10:12:00Z</time>
      </trkpt>
      <trkpt lat="48.60184" lon="1.96253">
        <ele>135.68</ele>
        <time>2018-01-23T10:12:02Z</time>
      </trkpt>
      <trkpt lat="48.6018" lon="1.96249">
        <ele>134.24</ele>
        <time>2018-01-23T10:12:05Z</time>
      </trkpt>
      <trkpt lat="48.60171" lon="1.96241">
        <ele>131.84</ele>
        <time>2018-01-23T10:12:18Z</time>
      </trkpt>
      <trkpt lat="48.60161" lon="1.96228">
        <ele>129.92</ele>
        <time>2018-01-23T10:12:29Z</time>
      </trkpt>
      <trkpt lat="48.60152" lon="1.96219">
        <ele>127.99</ele>
        <time>2018-01-23T10:12:41Z</time>
      </trkpt>
      <trkpt lat="48.60152" lon="1.96217">
        <ele>127.51</ele>
        <time>2018-01-23T10:12:59Z</time>
      </trkpt>
      <trkpt lat="48.6015" lon="1.96214">
        <ele>127.51</ele>
        <time>2018-01-23T10:13:15Z</time>
      </trkpt>
      <trkpt lat="48.6015" lon="1.96214">
        <ele>127.51</ele>
        <time>2018-01-23T10:13:17Z</time>
      </trkpt>
      <trkpt lat="48.6015" lon="1.96212">
        <ele>127.51</ele>
        <time>2018-01-23T10:13:19Z</time>
      </trkpt>
      <trkpt lat="48.60151" lon="1.96204">
        <ele>127.03</ele>
        <time>2018-01-23T10:13:24Z</time>
      </trkpt>
      <trkpt lat="48.60153" lon="1.962">
        <ele>126.55</ele>
        <time>2018-01-23T10:13:26Z</time>
      </trkpt>
      <trkpt lat="48.60157" lon="1.96189">
        <ele>126.55</ele>
        <time>2018-01-23T10:13:31Z</time>
      </trkpt>
      <trkpt lat="48.6016" lon="1.96181">
        <ele>126.07</ele>
        <time>2018-01-23T10:13:35Z</time>
      </trkpt>
      <trkpt lat="48.6016" lon="1.96168">
        <ele>125.59</ele>
        <time>2018-01-23T10:13:40Z</time>
      </trkpt>
      <trkpt lat="48.6016" lon="1.96156">
        <ele>125.11</ele>
        <time>2018-01-23T10:13:45Z</time>
      </trkpt>
      <trkpt lat="48.60159" lon="1.96144">
        <ele>124.15</ele>
        <time>2018-01-23T10:13:51Z</time>
      </trkpt>
      <trkpt lat="48.60159" lon="1.96122">
        <ele>123.67</ele>
        <time>2018-01-23T10:14:00Z</time>
      </trkpt>
      <trkpt lat="48.60158" lon="1.96103">
        <ele>122.71</ele>
        <time>2018-01-23T10:14:08Z</time>
      </trkpt>
      <trkpt lat="48.60151" lon="1.96079">
        <ele>122.22</ele>
        <time>2018-01-23T10:14:21Z</time>
      </trkpt>
      <trkpt lat="48.60154" lon="1.96057">
        <ele>121.26</ele>
        <time>2018-01-23T10:14:33Z</time>
      </trkpt>
      <trkpt lat="48.60153" lon="1.96055">
        <ele>121.26</ele>
        <time>2018-01-23T10:14:36Z</time>
      </trkpt>
      <trkpt lat="48.60151" lon="1.96048">
        <ele>120.78</ele>
        <time>2018-01-23T10:14:40Z</time>
      </trkpt>
      <trkpt lat="48.60147" lon="1.9604">
        <ele>121.26</ele>
        <time>2018-01-23T10:14:44Z</time>
      </trkpt>
      <trkpt lat="48.60139" lon="1.96005">
        <ele>120.78</ele>
        <time>2018-01-23T10:14:58Z</time>
      </trkpt>
      <trkpt lat="48.60135" lon="1.95987">
        <ele>119.34</ele>
        <time>2018-01-23T10:15:06Z</time>
      </trkpt>
      <trkpt lat="48.60132" lon="1.95968">
        <ele>118.86</ele>
        <time>2018-01-23T10:15:14Z</time>
      </trkpt>
      <trkpt lat="48.60131" lon="1.95956">
        <ele>118.86</ele>
        <time>2018-01-23T10:15:19Z</time>
      </trkpt>
      <trkpt lat="48.60122" lon="1.95924">
        <ele>117.9</ele>
        <time>2018-01-23T10:15:34Z</time>
      </trkpt>
      <trkpt lat="48.60113" lon="1.95899">
        <ele>117.42</ele>
        <time>2018-01-23T10:15:47Z</time>
      </trkpt>
      <trkpt lat="48.60111" lon="1.95895">
        <ele>117.42</ele>
        <time>2018-01-23T10:15:49Z</time>
      </trkpt>
      <trkpt lat="48.60093" lon="1.95869">
        <ele>116.94</ele>
        <time>2018-01-23T10:16:03Z</time>
      </trkpt>
      <trkpt lat="48.6009" lon="1.95866">
        <ele>116.94</ele>
        <time>2018-01-23T10:16:06Z</time>
      </trkpt>
      <trkpt lat="48.60073" lon="1.95853">
        <ele>117.9</ele>
        <time>2018-01-23T10:16:18Z</time>
      </trkpt>
      <trkpt lat="48.60059" lon="1.95834">
        <ele>118.86</ele>
        <time>2018-01-23T10:16:32Z</time>
      </trkpt>
      <trkpt lat="48.60056" lon="1.95829">
        <ele>118.38</ele>
        <time>2018-01-23T10:16:36Z</time>
      </trkpt>
      <trkpt lat="48.60046" lon="1.95804">
        <ele>118.86</ele>
        <time>2018-01-23T10:16:49Z</time>
      </trkpt>
      <trkpt lat="48.60043" lon="1.95795">
        <ele>118.86</ele>
        <time>2018-01-23T10:16:58Z</time>
      </trkpt>
      <trkpt lat="48.60037" lon="1.95781">
        <ele>119.82</ele>
        <time>2018-01-23T10:17:05Z</time>
      </trkpt>
      <trkpt lat="48.60026" lon="1.95756">
        <ele>120.3</ele>
        <time>2018-01-23T10:17:17Z</time>
      </trkpt>
      <trkpt lat="48.60017" lon="1.95734">
        <ele>120.78</ele>
        <time>2018-01-23T10:17:28Z</time>
      </trkpt>
      <trkpt lat="48.60012" lon="1.95719">
        <ele>121.26</ele>
        <time>2018-01-23T10:17:37Z</time>
      </trkpt>
      <trkpt lat="48.59996" lon="1.95698">
        <ele>122.71</ele>
        <time>2018-01-23T10:17:50Z</time>
      </trkpt>
      <trkpt lat="48.59991" lon="1.9569">
        <ele>123.19</ele>
        <time>2018-01-23T10:17:56Z</time>
      </trkpt>
      <trkpt lat="48.59986" lon="1.95687">
        <ele>123.19</ele>
        <time>2018-01-23T10:18:00Z</time>
      </trkpt>
      <trkpt lat="48.59979" lon="1.95683">
        <ele>124.15</ele>
        <time>2018-01-23T10:18:05Z</time>
      </trkpt>
      <trkpt lat="48.59973" lon="1.95681">
        <ele>124.15</ele>
        <time>2018-01-23T10:18:10Z</time>
      </trkpt>
      <trkpt lat="48.59968" lon="1.95679">
        <ele>124.63</ele>
        <time>2018-01-23T10:18:14Z</time>
      </trkpt>
      <trkpt lat="48.59961" lon="1.95678">
        <ele>125.59</ele>
        <time>2018-01-23T10:18:19Z</time>
      </trkpt>
      <trkpt lat="48.59945" lon="1.95678">
        <ele>126.07</ele>
        <time>2018-01-23T10:18:30Z</time>
      </trkpt>
      <trkpt lat="48.59927" lon="1.9568">
        <ele>125.11</ele>
        <time>2018-01-23T10:18:42Z</time>
      </trkpt>
      <trkpt lat="48.5992" lon="1.95684">
        <ele>124.63</ele>
        <time>2018-01-23T10:18:49Z</time>
      </trkpt>
      <trkpt lat="48.59911" lon="1.95686">
        <ele>124.15</ele>
        <time>2018-01-23T10:18:55Z</time>
      </trkpt>
      <trkpt lat="48.59902" lon="1.95684">
        <ele>123.67</ele>
        <time>2018-01-23T10:19:01Z</time>
      </trkpt>
      <trkpt lat="48.59893" lon="1.95686">
        <ele>123.19</ele>
        <time>2018-01-23T10:19:07Z</time>
      </trkpt>
      <trkpt lat="48.59887" lon="1.95685">
        <ele>122.71</ele>
        <time>2018-01-23T10:19:11Z</time>
      </trkpt>
      <trkpt lat="48.5988" lon="1.95682">
        <ele>122.22</ele>
        <time>2018-01-23T10:19:16Z</time>
      </trkpt>
      <trkpt lat="48.59874" lon="1.95687">
        <ele>122.22</ele>
        <time>2018-01-23T10:19:30Z</time>
      </trkpt>
      <trkpt lat="48.59874" lon="1.95692">
        <ele>121.74</ele>
        <time>2018-01-23T10:19:51Z</time>
      </trkpt>
      <trkpt lat="48.59876" lon="1.95693">
        <ele>121.74</ele>
        <time>2018-01-23T10:20:15Z</time>
      </trkpt>
      <trkpt lat="48.59876" lon="1.95693">
        <ele>121.74</ele>
        <time>2018-01-23T10:20:43Z</time>
      </trkpt>
      <trkpt lat="48.59878" lon="1.95693">
        <ele>121.74</ele>
        <time>2018-01-23T10:21:01Z</time>
      </trkpt>
      <trkpt lat="48.59868" lon="1.95696">
        <ele>122.22</ele>
        <time>2018-01-23T10:21:15Z</time>
      </trkpt>
      <trkpt lat="48.59866" lon="1.95697">
        <ele>122.71</ele>
        <time>2018-01-23T10:21:17Z</time>
      </trkpt>
      <trkpt lat="48.59865" lon="1.957">
        <ele>122.22</ele>
        <time>2018-01-23T10:21:19Z</time>
      </trkpt>
      <trkpt lat="48.5986" lon="1.95708">
        <ele>122.22</ele>
        <time>2018-01-23T10:21:24Z</time>
      </trkpt>
      <trkpt lat="48.59856" lon="1.95714">
        <ele>122.22</ele>
        <time>2018-01-23T10:21:28Z</time>
      </trkpt>
      <trkpt lat="48.59854" lon="1.95721">
        <ele>122.22</ele>
        <time>2018-01-23T10:21:31Z</time>
      </trkpt>
      <trkpt lat="48.59845" lon="1.95738">
        <ele>123.67</ele>
        <time>2018-01-23T10:21:42Z</time>
      </trkpt>
      <trkpt lat="48.59844" lon="1.95741">
        <ele>122.22</ele>
        <time>2018-01-23T10:21:44Z</time>
      </trkpt>
      <trkpt lat="48.59842" lon="1.95748">
        <ele>122.22</ele>
        <time>2018-01-23T10:21:47Z</time>
      </trkpt>
      <trkpt lat="48.59838" lon="1.95755">
        <ele>122.22</ele>
        <time>2018-01-23T10:21:51Z</time>
      </trkpt>
      <trkpt lat="48.59836" lon="1.9576">
        <ele>122.22</ele>
        <time>2018-01-23T10:21:54Z</time>
      </trkpt>
      <trkpt lat="48.59831" lon="1.95768">
        <ele>123.19</ele>
        <time>2018-01-23T10:22:01Z</time>
      </trkpt>
      <trkpt lat="48.59825" lon="1.9578">
        <ele>123.19</ele>
        <time>2018-01-23T10:22:09Z</time>
      </trkpt>
      <trkpt lat="48.59815" lon="1.95792">
        <ele>123.19</ele>
        <time>2018-01-23T10:22:18Z</time>
      </trkpt>
      <trkpt lat="48.59813" lon="1.95796">
        <ele>123.19</ele>
        <time>2018-01-23T10:22:20Z</time>
      </trkpt>
      <trkpt lat="48.59806" lon="1.9581">
        <ele>123.19</ele>
        <time>2018-01-23T10:22:28Z</time>
      </trkpt>
      <trkpt lat="48.59806" lon="1.95814">
        <ele>123.19</ele>
        <time>2018-01-23T10:22:30Z</time>
      </trkpt>
      <trkpt lat="48.59801" lon="1.95824">
        <ele>123.67</ele>
        <time>2018-01-23T10:22:36Z</time>
      </trkpt>
      <trkpt lat="48.59796" lon="1.95835">
        <ele>123.67</ele>
        <time>2018-01-23T10:22:42Z</time>
      </trkpt>
      <trkpt lat="48.59789" lon="1.95855">
        <ele>124.63</ele>
        <time>2018-01-23T10:22:53Z</time>
      </trkpt>
      <trkpt lat="48.59788" lon="1.95859">
        <ele>124.15</ele>
        <time>2018-01-23T10:22:56Z</time>
      </trkpt>
      <trkpt lat="48.59783" lon="1.95872">
        <ele>124.15</ele>
        <time>2018-01-23T10:23:03Z</time>
      </trkpt>
      <trkpt lat="48.5978" lon="1.95878">
        <ele>124.63</ele>
        <time>2018-01-23T10:23:07Z</time>
      </trkpt>
      <trkpt lat="48.59774" lon="1.95888">
        <ele>125.11</ele>
        <time>2018-01-23T10:23:13Z</time>
      </trkpt>
      <trkpt lat="48.59767" lon="1.95903">
        <ele>125.59</ele>
        <time>2018-01-23T10:23:22Z</time>
      </trkpt>
      <trkpt lat="48.59763" lon="1.95913">
        <ele>126.07</ele>
        <time>2018-01-23T10:23:28Z</time>
      </trkpt>
      <trkpt lat="48.59754" lon="1.95929">
        <ele>126.07</ele>
        <time>2018-01-23T10:23:38Z</time>
      </trkpt>
      <trkpt lat="48.59752" lon="1.95931">
        <ele>126.55</ele>
        <time>2018-01-23T10:23:40Z</time>
      </trkpt>
      <trkpt lat="48.59748" lon="1.9594">
        <ele>127.51</ele>
        <time>2018-01-23T10:23:46Z</time>
      </trkpt>
      <trkpt lat="48.59739" lon="1.95958">
        <ele>127.03</ele>
        <time>2018-01-23T10:23:57Z</time>
      </trkpt>
      <trkpt lat="48.59738" lon="1.9596">
        <ele>127.03</ele>
        <time>2018-01-23T10:23:58Z</time>
      </trkpt>
      <trkpt lat="48.5973" lon="1.9598">
        <ele>127.99</ele>
        <time>2018-01-23T10:24:08Z</time>
      </trkpt>
      <trkpt lat="48.5972" lon="1.96004">
        <ele>127.99</ele>
        <time>2018-01-23T10:24:20Z</time>
      </trkpt>
      <trkpt lat="48.59709" lon="1.96027">
        <ele>128.95</ele>
        <time>2018-01-23T10:24:32Z</time>
      </trkpt>
      <trkpt lat="48.59704" lon="1.96036">
        <ele>129.43</ele>
        <time>2018-01-23T10:24:38Z</time>
      </trkpt>
      <trkpt lat="48.59702" lon="1.96039">
        <ele>129.43</ele>
        <time>2018-01-23T10:24:40Z</time>
      </trkpt>
      <trkpt lat="48.59698" lon="1.96046">
        <ele>129.92</ele>
        <time>2018-01-23T10:24:44Z</time>
      </trkpt>
      <trkpt lat="48.5969" lon="1.96069">
        <ele>131.84</ele>
        <time>2018-01-23T10:24:56Z</time>
      </trkpt>
      <trkpt lat="48.59688" lon="1.96072">
        <ele>131.84</ele>
        <time>2018-01-23T10:24:58Z</time>
      </trkpt>
      <trkpt lat="48.59687" lon="1.96078">
        <ele>132.32</ele>
        <time>2018-01-23T10:25:01Z</time>
      </trkpt>
      <trkpt lat="48.59676" lon="1.96098">
        <ele>134.24</ele>
        <time>2018-01-23T10:25:13Z</time>
      </trkpt>
      <trkpt lat="48.59673" lon="1.96106">
        <ele>135.2</ele>
        <time>2018-01-23T10:25:17Z</time>
      </trkpt>
      <trkpt lat="48.59668" lon="1.96114">
        <ele>135.2</ele>
        <time>2018-01-23T10:25:22Z</time>
      </trkpt>
      <trkpt lat="48.59665" lon="1.96121">
        <ele>136.16</ele>
        <time>2018-01-23T10:25:26Z</time>
      </trkpt>
      <trkpt lat="48.5966" lon="1.96129">
        <ele>135.68</ele>
        <time>2018-01-23T10:25:31Z</time>
      </trkpt>
      <trkpt lat="48.59654" lon="1.96136">
        <ele>137.13</ele>
        <time>2018-01-23T10:25:36Z</time>
      </trkpt>
      <trkpt lat="48.5965" lon="1.9615">
        <ele>137.61</ele>
        <time>2018-01-23T10:25:43Z</time>
      </trkpt>
      <trkpt lat="48.59644" lon="1.96163">
        <ele>139.05</ele>
        <time>2018-01-23T10:25:50Z</time>
      </trkpt>
      <trkpt lat="48.59636" lon="1.96184">
        <ele>141.45</ele>
        <time>2018-01-23T10:26:02Z</time>
      </trkpt>
      <trkpt lat="48.59634" lon="1.96191">
        <ele>142.41</ele>
        <time>2018-01-23T10:26:06Z</time>
      </trkpt>
      <trkpt lat="48.59628" lon="1.96195">
        <ele>142.89</ele>
        <time>2018-01-23T10:26:10Z</time>
      </trkpt>
      <trkpt lat="48.59626" lon="1.96201">
        <ele>143.37</ele>
        <time>2018-01-23T10:26:12Z</time>
      </trkpt>
      <trkpt lat="48.59622" lon="1.96213">
        <ele>145.3</ele>
        <time>2018-01-23T10:26:20Z</time>
      </trkpt>
      <trkpt lat="48.59615" lon="1.96226">
        <ele>147.22</ele>
        <time>2018-01-23T10:26:28Z</time>
      </trkpt>
      <trkpt lat="48.59611" lon="1.96244">
        <ele>149.62</ele>
        <time>2018-01-23T10:26:37Z</time>
      </trkpt>
      <trkpt lat="48.59605" lon="1.96249">
        <ele>150.58</ele>
        <time>2018-01-23T10:26:42Z</time>
      </trkpt>
      <trkpt lat="48.596" lon="1.96255">
        <ele>150.58</ele>
        <time>2018-01-23T10:26:46Z</time>
      </trkpt>
      <trkpt lat="48.59598" lon="1.96263">
        <ele>151.54</ele>
        <time>2018-01-23T10:26:50Z</time>
      </trkpt>
      <trkpt lat="48.5959" lon="1.96276">
        <ele>153.47</ele>
        <time>2018-01-23T10:26:59Z</time>
      </trkpt>
      <trkpt lat="48.59587" lon="1.9629">
        <ele>152.99</ele>
        <time>2018-01-23T10:27:08Z</time>
      </trkpt>
      <trkpt lat="48.59578" lon="1.9631">
        <ele>154.43</ele>
        <time>2018-01-23T10:27:20Z</time>
      </trkpt>
      <trkpt lat="48.59569" lon="1.96328">
        <ele>153.47</ele>
        <time>2018-01-23T10:27:30Z</time>
      </trkpt>
      <trkpt lat="48.59558" lon="1.96352">
        <ele>153.47</ele>
        <time>2018-01-23T10:27:42Z</time>
      </trkpt>
      <trkpt lat="48.59554" lon="1.96358">
        <ele>153.47</ele>
        <time>2018-01-23T10:27:45Z</time>
      </trkpt>
      <trkpt lat="48.59545" lon="1.96383">
        <ele>152.51</ele>
        <time>2018-01-23T10:27:59Z</time>
      </trkpt>
      <trkpt lat="48.59533" lon="1.96408">
        <ele>150.58</ele>
        <time>2018-01-23T10:28:11Z</time>
      </trkpt>
      <trkpt lat="48.59528" lon="1.96418">
        <ele>150.1</ele>
        <time>2018-01-23T10:28:19Z</time>
      </trkpt>
      <trkpt lat="48.59516" lon="1.96442">
        <ele>148.18</ele>
        <time>2018-01-23T10:28:30Z</time>
      </trkpt>
      <trkpt lat="48.59515" lon="1.96444">
        <ele>147.7</ele>
        <time>2018-01-23T10:28:31Z</time>
      </trkpt>
      <trkpt lat="48.59512" lon="1.96452">
        <ele>147.22</ele>
        <time>2018-01-23T10:28:36Z</time>
      </trkpt>
      <trkpt lat="48.59508" lon="1.96461">
        <ele>146.26</ele>
        <time>2018-01-23T10:28:40Z</time>
      </trkpt>
      <trkpt lat="48.59495" lon="1.96492">
        <ele>145.78</ele>
        <time>2018-01-23T10:28:54Z</time>
      </trkpt>
      <trkpt lat="48.59484" lon="1.96511">
        <ele>144.34</ele>
        <time>2018-01-23T10:29:03Z</time>
      </trkpt>
      <trkpt lat="48.59479" lon="1.9652">
        <ele>143.37</ele>
        <time>2018-01-23T10:29:08Z</time>
      </trkpt>
      <trkpt lat="48.59474" lon="1.96533">
        <ele>142.41</ele>
        <time>2018-01-23T10:29:14Z</time>
      </trkpt>
      <trkpt lat="48.59463" lon="1.96557">
        <ele>141.45</ele>
        <time>2018-01-23T10:29:28Z</time>
      </trkpt>
      <trkpt lat="48.59449" lon="1.96584">
        <ele>140.97</ele>
        <time>2018-01-23T10:29:42Z</time>
      </trkpt>
      <trkpt lat="48.59442" lon="1.96597">
        <ele>141.93</ele>
        <time>2018-01-23T10:29:53Z</time>
      </trkpt>
      <trkpt lat="48.5944" lon="1.96598">
        <ele>141.93</ele>
        <time>2018-01-23T10:29:55Z</time>
      </trkpt>
      <trkpt lat="48.59437" lon="1.96604">
        <ele>141.93</ele>
        <time>2018-01-23T10:29:58Z</time>
      </trkpt>
      <trkpt lat="48.59434" lon="1.96623">
        <ele>141.93</ele>
        <time>2018-01-23T10:30:08Z</time>
      </trkpt>
      <trkpt lat="48.59433" lon="1.96626">
        <ele>141.45</ele>
        <time>2018-01-23T10:30:10Z</time>
      </trkpt>
      <trkpt lat="48.59422" lon="1.96646">
        <ele>140.97</ele>
        <time>2018-01-23T10:30:22Z</time>
      </trkpt>
      <trkpt lat="48.59411" lon="1.96668">
        <ele>141.45</ele>
        <time>2018-01-23T10:30:34Z</time>
      </trkpt>
      <trkpt lat="48.59406" lon="1.96678">
        <ele>141.45</ele>
        <time>2018-01-23T10:30:40Z</time>
      </trkpt>
      <trkpt lat="48.594" lon="1.96681">
        <ele>141.45</ele>
        <time>2018-01-23T10:30:45Z</time>
      </trkpt>
      <trkpt lat="48.59394" lon="1.9668">
        <ele>140.97</ele>
        <time>2018-01-23T10:30:50Z</time>
      </trkpt>
      <trkpt lat="48.59383" lon="1.96674">
        <ele>140.49</ele>
        <time>2018-01-23T10:30:57Z</time>
      </trkpt>
      <trkpt lat="48.59374" lon="1.96668">
        <ele>140.01</ele>
        <time>2018-01-23T10:31:03Z</time>
      </trkpt>
      <trkpt lat="48.59363" lon="1.96664">
        <ele>137.61</ele>
        <time>2018-01-23T10:31:12Z</time>
      </trkpt>
      <trkpt lat="48.59356" lon="1.9666">
        <ele>134.72</ele>
        <time>2018-01-23T10:31:19Z</time>
      </trkpt>
      <trkpt lat="48.59352" lon="1.96657">
        <ele>133.28</ele>
        <time>2018-01-23T10:31:22Z</time>
      </trkpt>
      <trkpt lat="48.59344" lon="1.96657">
        <ele>130.4</ele>
        <time>2018-01-23T10:31:31Z</time>
      </trkpt>
      <trkpt lat="48.5934" lon="1.96654">
        <ele>129.43</ele>
        <time>2018-01-23T10:31:34Z</time>
      </trkpt>
      <trkpt lat="48.59334" lon="1.96652">
        <ele>128.95</ele>
        <time>2018-01-23T10:31:38Z</time>
      </trkpt>
      <trkpt lat="48.59323" lon="1.9665">
        <ele>127.99</ele>
        <time>2018-01-23T10:31:44Z</time>
      </trkpt>
      <trkpt lat="48.5932" lon="1.96649">
        <ele>127.03</ele>
        <time>2018-01-23T10:31:46Z</time>
      </trkpt>
      <trkpt lat="48.59312" lon="1.96649">
        <ele>126.07</ele>
        <time>2018-01-23T10:31:51Z</time>
      </trkpt>
      <trkpt lat="48.59305" lon="1.96644">
        <ele>126.07</ele>
        <time>2018-01-23T10:31:55Z</time>
      </trkpt>
      <trkpt lat="48.59302" lon="1.96643">
        <ele>125.11</ele>
        <time>2018-01-23T10:31:57Z</time>
      </trkpt>
      <trkpt lat="48.59292" lon="1.9664">
        <ele>124.15</ele>
        <time>2018-01-23T10:32:04Z</time>
      </trkpt>
      <trkpt lat="48.59286" lon="1.96638">
        <ele>123.67</ele>
        <time>2018-01-23T10:32:09Z</time>
      </trkpt>
      <trkpt lat="48.59275" lon="1.96634">
        <ele>121.74</ele>
        <time>2018-01-23T10:32:18Z</time>
      </trkpt>
      <trkpt lat="48.59268" lon="1.96629">
        <ele>120.78</ele>
        <time>2018-01-23T10:32:22Z</time>
      </trkpt>
      <trkpt lat="48.59254" lon="1.96618">
        <ele>119.82</ele>
        <time>2018-01-23T10:32:31Z</time>
      </trkpt>
      <trkpt lat="48.59252" lon="1.96614">
        <ele>119.82</ele>
        <time>2018-01-23T10:32:33Z</time>
      </trkpt>
      <trkpt lat="48.59249" lon="1.96611">
        <ele>119.34</ele>
        <time>2018-01-23T10:32:35Z</time>
      </trkpt>
      <trkpt lat="48.59241" lon="1.96605">
        <ele>118.38</ele>
        <time>2018-01-23T10:32:42Z</time>
      </trkpt>
      <trkpt lat="48.59235" lon="1.96599">
        <ele>117.9</ele>
        <time>2018-01-23T10:32:46Z</time>
      </trkpt>
      <trkpt lat="48.59229" lon="1.96598">
        <ele>117.9</ele>
        <time>2018-01-23T10:32:50Z</time>
      </trkpt>
      <trkpt lat="48.5922" lon="1.96592">
        <ele>116.94</ele>
        <time>2018-01-23T10:32:56Z</time>
      </trkpt>
      <trkpt lat="48.59215" lon="1.96593">
        <ele>116.46</ele>
        <time>2018-01-23T10:33:00Z</time>
      </trkpt>
      <trkpt lat="48.59212" lon="1.96596">
        <ele>115.98</ele>
        <time>2018-01-23T10:33:03Z</time>
      </trkpt>
      <trkpt lat="48.59199" lon="1.96594">
        <ele>114.05</ele>
        <time>2018-01-23T10:33:14Z</time>
      </trkpt>
      <trkpt lat="48.59191" lon="1.96596">
        <ele>114.05</ele>
        <time>2018-01-23T10:33:25Z</time>
      </trkpt>
      <trkpt lat="48.59189" lon="1.96596">
        <ele>113.57</ele>
        <time>2018-01-23T10:33:27Z</time>
      </trkpt>
      <trkpt lat="48.59179" lon="1.966">
        <ele>111.17</ele>
        <time>2018-01-23T10:33:36Z</time>
      </trkpt>
      <trkpt lat="48.5917" lon="1.96611">
        <ele>114.05</ele>
        <time>2018-01-23T10:33:50Z</time>
      </trkpt>
      <trkpt lat="48.59168" lon="1.96614">
        <ele>113.57</ele>
        <time>2018-01-23T10:34:03Z</time>
      </trkpt>
      <trkpt lat="48.59168" lon="1.96612">
        <ele>113.57</ele>
        <time>2018-01-23T10:34:24Z</time>
      </trkpt>
      <trkpt lat="48.5917" lon="1.96606">
        <ele>113.57</ele>
        <time>2018-01-23T10:34:45Z</time>
      </trkpt>
      <trkpt lat="48.5917" lon="1.96606">
        <ele>113.09</ele>
        <time>2018-01-23T10:35:13Z</time>
      </trkpt>
      <trkpt lat="48.59173" lon="1.96603">
        <ele>114.53</ele>
        <time>2018-01-23T10:35:44Z</time>
      </trkpt>
      <trkpt lat="48.59173" lon="1.96603">
        <ele>113.57</ele>
        <time>2018-01-23T10:36:03Z</time>
      </trkpt>
    </trkseg>
  </trk>
</gpx>